<?xml version="1.0" encoding="UTF-8" standalone="no" ?>
<gpx xmlns="http://www.topografix.com/GPX/1/1" xmlns:xsi="http://www.w3.org/2001/XMLSchema-instance" xsi:schemaLocation="http://www.topografix.com/GPX/1/1 http://www.topografix.com/GPX/1/1/gpx.xsd" version="1.1" creator="VisuGPX - https://www.visugpx.com">
  <metadata>
    <name>Raquettes - But de l'Aiglette</name>
    <desc><![CDATA[Bien belle rando malgré la neige soufflée sur les crêtes.]]></desc>
  </metadata>
  <trk>
    <name><![CDATA[19-DEC-21 12:23:51]]></name>
    <trkseg>
      <trkpt lat="44.83919" lon="5.39234">
        <ele>1176.79</ele>
        <time>2021-12-19T08:32:32Z</time>
      </trkpt>
      <trkpt lat="44.83919" lon="5.39233">
        <ele>1176.79</ele>
        <time>2021-12-19T08:32:33Z</time>
      </trkpt>
      <trkpt lat="44.83919" lon="5.39233">
        <ele>1177.27</ele>
        <time>2021-12-19T08:32:43Z</time>
      </trkpt>
      <trkpt lat="44.83919" lon="5.39231">
        <ele>1184</ele>
        <time>2021-12-19T08:32:45Z</time>
      </trkpt>
      <trkpt lat="44.83917" lon="5.39232">
        <ele>1189.77</ele>
        <time>2021-12-19T08:32:47Z</time>
      </trkpt>
      <trkpt lat="44.83916" lon="5.39233">
        <ele>1192.65</ele>
        <time>2021-12-19T08:32:48Z</time>
      </trkpt>
      <trkpt lat="44.83915" lon="5.39234">
        <ele>1196.02</ele>
        <time>2021-12-19T08:32:49Z</time>
      </trkpt>
      <trkpt lat="44.83915" lon="5.39235">
        <ele>1202.27</ele>
        <time>2021-12-19T08:32:51Z</time>
      </trkpt>
      <trkpt lat="44.83915" lon="5.39235">
        <ele>1205.15</ele>
        <time>2021-12-19T08:32:52Z</time>
      </trkpt>
      <trkpt lat="44.83915" lon="5.39236">
        <ele>1210.44</ele>
        <time>2021-12-19T08:32:54Z</time>
      </trkpt>
      <trkpt lat="44.83915" lon="5.39236">
        <ele>1215.24</ele>
        <time>2021-12-19T08:32:56Z</time>
      </trkpt>
      <trkpt lat="44.83915" lon="5.39236">
        <ele>1218.61</ele>
        <time>2021-12-19T08:32:58Z</time>
      </trkpt>
      <trkpt lat="44.83915" lon="5.39236">
        <ele>1221.97</ele>
        <time>2021-12-19T08:32:59Z</time>
      </trkpt>
      <trkpt lat="44.83915" lon="5.39235">
        <ele>1225.34</ele>
        <time>2021-12-19T08:33:01Z</time>
      </trkpt>
      <trkpt lat="44.83916" lon="5.39234">
        <ele>1228.7</ele>
        <time>2021-12-19T08:33:03Z</time>
      </trkpt>
      <trkpt lat="44.83916" lon="5.39233">
        <ele>1231.59</ele>
        <time>2021-12-19T08:33:06Z</time>
      </trkpt>
      <trkpt lat="44.83916" lon="5.39233">
        <ele>1234.47</ele>
        <time>2021-12-19T08:33:07Z</time>
      </trkpt>
      <trkpt lat="44.83915" lon="5.39233">
        <ele>1238.8</ele>
        <time>2021-12-19T08:33:09Z</time>
      </trkpt>
      <trkpt lat="44.83915" lon="5.39233">
        <ele>1242.16</ele>
        <time>2021-12-19T08:33:10Z</time>
      </trkpt>
      <trkpt lat="44.83915" lon="5.39233">
        <ele>1242.16</ele>
        <time>2021-12-19T08:33:11Z</time>
      </trkpt>
      <trkpt lat="44.83914" lon="5.3923">
        <ele>1246.49</ele>
        <time>2021-12-19T08:33:14Z</time>
      </trkpt>
      <trkpt lat="44.83913" lon="5.39228">
        <ele>1249.85</ele>
        <time>2021-12-19T08:33:17Z</time>
      </trkpt>
      <trkpt lat="44.83911" lon="5.39226">
        <ele>1253.22</ele>
        <time>2021-12-19T08:33:20Z</time>
      </trkpt>
      <trkpt lat="44.8391" lon="5.39225">
        <ele>1256.1</ele>
        <time>2021-12-19T08:33:22Z</time>
      </trkpt>
      <trkpt lat="44.83907" lon="5.39222">
        <ele>1259.94</ele>
        <time>2021-12-19T08:33:26Z</time>
      </trkpt>
      <trkpt lat="44.83906" lon="5.39217">
        <ele>1262.83</ele>
        <time>2021-12-19T08:33:30Z</time>
      </trkpt>
      <trkpt lat="44.83905" lon="5.39216">
        <ele>1262.83</ele>
        <time>2021-12-19T08:33:31Z</time>
      </trkpt>
      <trkpt lat="44.83903" lon="5.39212">
        <ele>1266.19</ele>
        <time>2021-12-19T08:33:35Z</time>
      </trkpt>
      <trkpt lat="44.83903" lon="5.39211">
        <ele>1266.19</ele>
        <time>2021-12-19T08:33:36Z</time>
      </trkpt>
      <trkpt lat="44.83901" lon="5.39208">
        <ele>1269.08</ele>
        <time>2021-12-19T08:33:44Z</time>
      </trkpt>
      <trkpt lat="44.83901" lon="5.39207">
        <ele>1269.56</ele>
        <time>2021-12-19T08:33:45Z</time>
      </trkpt>
      <trkpt lat="44.83901" lon="5.39203">
        <ele>1272.44</ele>
        <time>2021-12-19T08:33:56Z</time>
      </trkpt>
      <trkpt lat="44.83897" lon="5.39195">
        <ele>1276.29</ele>
        <time>2021-12-19T08:34:07Z</time>
      </trkpt>
      <trkpt lat="44.83891" lon="5.3919">
        <ele>1277.25</ele>
        <time>2021-12-19T08:34:15Z</time>
      </trkpt>
      <trkpt lat="44.83886" lon="5.39181">
        <ele>1277.73</ele>
        <time>2021-12-19T08:34:22Z</time>
      </trkpt>
      <trkpt lat="44.83885" lon="5.39173">
        <ele>1274.36</ele>
        <time>2021-12-19T08:34:33Z</time>
      </trkpt>
      <trkpt lat="44.83885" lon="5.39173">
        <ele>1277.73</ele>
        <time>2021-12-19T08:34:34Z</time>
      </trkpt>
      <trkpt lat="44.83885" lon="5.39173">
        <ele>1273.88</ele>
        <time>2021-12-19T08:34:37Z</time>
      </trkpt>
      <trkpt lat="44.83885" lon="5.39173">
        <ele>1274.85</ele>
        <time>2021-12-19T08:34:38Z</time>
      </trkpt>
      <trkpt lat="44.83885" lon="5.39173">
        <ele>1279.17</ele>
        <time>2021-12-19T08:34:39Z</time>
      </trkpt>
      <trkpt lat="44.83885" lon="5.39173">
        <ele>1278.69</ele>
        <time>2021-12-19T08:34:40Z</time>
      </trkpt>
      <trkpt lat="44.83885" lon="5.39173">
        <ele>1273.88</ele>
        <time>2021-12-19T08:34:41Z</time>
      </trkpt>
      <trkpt lat="44.83885" lon="5.39173">
        <ele>1277.25</ele>
        <time>2021-12-19T08:34:42Z</time>
      </trkpt>
      <trkpt lat="44.83885" lon="5.39173">
        <ele>1278.21</ele>
        <time>2021-12-19T08:34:44Z</time>
      </trkpt>
      <trkpt lat="44.83884" lon="5.39174">
        <ele>1274.85</ele>
        <time>2021-12-19T08:34:49Z</time>
      </trkpt>
      <trkpt lat="44.83884" lon="5.39174">
        <ele>1278.21</ele>
        <time>2021-12-19T08:34:53Z</time>
      </trkpt>
      <trkpt lat="44.83884" lon="5.39174">
        <ele>1274.36</ele>
        <time>2021-12-19T08:35:02Z</time>
      </trkpt>
      <trkpt lat="44.83884" lon="5.39174">
        <ele>1283.5</ele>
        <time>2021-12-19T08:35:04Z</time>
      </trkpt>
      <trkpt lat="44.83884" lon="5.39174">
        <ele>1272.44</ele>
        <time>2021-12-19T08:35:05Z</time>
      </trkpt>
      <trkpt lat="44.83884" lon="5.39174">
        <ele>1280.61</ele>
        <time>2021-12-19T08:35:06Z</time>
      </trkpt>
      <trkpt lat="44.83884" lon="5.39174">
        <ele>1273.4</ele>
        <time>2021-12-19T08:35:07Z</time>
      </trkpt>
      <trkpt lat="44.83884" lon="5.39174">
        <ele>1281.09</ele>
        <time>2021-12-19T08:35:08Z</time>
      </trkpt>
      <trkpt lat="44.83884" lon="5.39174">
        <ele>1276.29</ele>
        <time>2021-12-19T08:35:10Z</time>
      </trkpt>
      <trkpt lat="44.83884" lon="5.39174">
        <ele>1278.21</ele>
        <time>2021-12-19T08:35:11Z</time>
      </trkpt>
      <trkpt lat="44.83884" lon="5.39174">
        <ele>1275.81</ele>
        <time>2021-12-19T08:35:23Z</time>
      </trkpt>
      <trkpt lat="44.83884" lon="5.39172">
        <ele>1276.77</ele>
        <time>2021-12-19T08:35:52Z</time>
      </trkpt>
      <trkpt lat="44.83884" lon="5.39172">
        <ele>1279.65</ele>
        <time>2021-12-19T08:35:55Z</time>
      </trkpt>
      <trkpt lat="44.83879" lon="5.39164">
        <ele>1278.21</ele>
        <time>2021-12-19T08:36:07Z</time>
      </trkpt>
      <trkpt lat="44.83872" lon="5.39152">
        <ele>1281.57</ele>
        <time>2021-12-19T08:36:18Z</time>
      </trkpt>
      <trkpt lat="44.83869" lon="5.39147">
        <ele>1280.61</ele>
        <time>2021-12-19T08:36:22Z</time>
      </trkpt>
      <trkpt lat="44.8386" lon="5.3913">
        <ele>1282.54</ele>
        <time>2021-12-19T08:36:34Z</time>
      </trkpt>
      <trkpt lat="44.8386" lon="5.39127">
        <ele>1281.57</ele>
        <time>2021-12-19T08:36:35Z</time>
      </trkpt>
      <trkpt lat="44.83859" lon="5.39115">
        <ele>1283.5</ele>
        <time>2021-12-19T08:36:41Z</time>
      </trkpt>
      <trkpt lat="44.83856" lon="5.39113">
        <ele>1281.57</ele>
        <time>2021-12-19T08:36:45Z</time>
      </trkpt>
      <trkpt lat="44.8385" lon="5.39114">
        <ele>1283.5</ele>
        <time>2021-12-19T08:36:51Z</time>
      </trkpt>
      <trkpt lat="44.83839" lon="5.39114">
        <ele>1283.5</ele>
        <time>2021-12-19T08:37:00Z</time>
      </trkpt>
      <trkpt lat="44.83838" lon="5.39114">
        <ele>1285.42</ele>
        <time>2021-12-19T08:37:01Z</time>
      </trkpt>
      <trkpt lat="44.83828" lon="5.39113">
        <ele>1284.46</ele>
        <time>2021-12-19T08:37:13Z</time>
      </trkpt>
      <trkpt lat="44.83825" lon="5.39111">
        <ele>1284.46</ele>
        <time>2021-12-19T08:37:16Z</time>
      </trkpt>
      <trkpt lat="44.83824" lon="5.39109">
        <ele>1284.94</ele>
        <time>2021-12-19T08:37:18Z</time>
      </trkpt>
      <trkpt lat="44.83819" lon="5.39104">
        <ele>1285.42</ele>
        <time>2021-12-19T08:37:32Z</time>
      </trkpt>
      <trkpt lat="44.83808" lon="5.39095">
        <ele>1285.42</ele>
        <time>2021-12-19T08:37:46Z</time>
      </trkpt>
      <trkpt lat="44.83806" lon="5.39093">
        <ele>1286.38</ele>
        <time>2021-12-19T08:37:48Z</time>
      </trkpt>
      <trkpt lat="44.83792" lon="5.39078">
        <ele>1286.86</ele>
        <time>2021-12-19T08:38:05Z</time>
      </trkpt>
      <trkpt lat="44.83779" lon="5.39082">
        <ele>1288.78</ele>
        <time>2021-12-19T08:38:23Z</time>
      </trkpt>
      <trkpt lat="44.83773" lon="5.39081">
        <ele>1289.75</ele>
        <time>2021-12-19T08:38:40Z</time>
      </trkpt>
      <trkpt lat="44.83769" lon="5.39076">
        <ele>1290.71</ele>
        <time>2021-12-19T08:38:47Z</time>
      </trkpt>
      <trkpt lat="44.83757" lon="5.39074">
        <ele>1290.71</ele>
        <time>2021-12-19T08:38:59Z</time>
      </trkpt>
      <trkpt lat="44.83752" lon="5.39078">
        <ele>1291.19</ele>
        <time>2021-12-19T08:39:02Z</time>
      </trkpt>
      <trkpt lat="44.83741" lon="5.39085">
        <ele>1289.27</ele>
        <time>2021-12-19T08:39:15Z</time>
      </trkpt>
      <trkpt lat="44.8374" lon="5.39086">
        <ele>1293.59</ele>
        <time>2021-12-19T08:39:16Z</time>
      </trkpt>
      <trkpt lat="44.83741" lon="5.39085">
        <ele>1289.75</ele>
        <time>2021-12-19T08:39:21Z</time>
      </trkpt>
      <trkpt lat="44.83742" lon="5.39084">
        <ele>1296.48</ele>
        <time>2021-12-19T08:39:23Z</time>
      </trkpt>
      <trkpt lat="44.83741" lon="5.39083">
        <ele>1293.59</ele>
        <time>2021-12-19T08:39:24Z</time>
      </trkpt>
      <trkpt lat="44.83741" lon="5.39083">
        <ele>1291.19</ele>
        <time>2021-12-19T08:39:41Z</time>
      </trkpt>
      <trkpt lat="44.83741" lon="5.39083">
        <ele>1294.07</ele>
        <time>2021-12-19T08:39:42Z</time>
      </trkpt>
      <trkpt lat="44.8374" lon="5.39082">
        <ele>1293.11</ele>
        <time>2021-12-19T08:39:48Z</time>
      </trkpt>
      <trkpt lat="44.83736" lon="5.39079">
        <ele>1294.07</ele>
        <time>2021-12-19T08:39:52Z</time>
      </trkpt>
      <trkpt lat="44.83732" lon="5.39077">
        <ele>1294.55</ele>
        <time>2021-12-19T08:39:57Z</time>
      </trkpt>
      <trkpt lat="44.83728" lon="5.39072">
        <ele>1295.51</ele>
        <time>2021-12-19T08:40:02Z</time>
      </trkpt>
      <trkpt lat="44.83724" lon="5.39071">
        <ele>1296.48</ele>
        <time>2021-12-19T08:40:06Z</time>
      </trkpt>
      <trkpt lat="44.83717" lon="5.39071">
        <ele>1295.99</ele>
        <time>2021-12-19T08:40:13Z</time>
      </trkpt>
      <trkpt lat="44.83709" lon="5.39072">
        <ele>1297.44</ele>
        <time>2021-12-19T08:40:20Z</time>
      </trkpt>
      <trkpt lat="44.837" lon="5.39069">
        <ele>1298.4</ele>
        <time>2021-12-19T08:40:29Z</time>
      </trkpt>
      <trkpt lat="44.83697" lon="5.39068">
        <ele>1299.84</ele>
        <time>2021-12-19T08:40:32Z</time>
      </trkpt>
      <trkpt lat="44.83692" lon="5.39069">
        <ele>1298.88</ele>
        <time>2021-12-19T08:40:35Z</time>
      </trkpt>
      <trkpt lat="44.83687" lon="5.3907">
        <ele>1299.84</ele>
        <time>2021-12-19T08:40:38Z</time>
      </trkpt>
      <trkpt lat="44.83684" lon="5.39068">
        <ele>1300.32</ele>
        <time>2021-12-19T08:40:41Z</time>
      </trkpt>
      <trkpt lat="44.83678" lon="5.39065">
        <ele>1300.8</ele>
        <time>2021-12-19T08:40:52Z</time>
      </trkpt>
      <trkpt lat="44.83678" lon="5.39067">
        <ele>1300.8</ele>
        <time>2021-12-19T08:41:09Z</time>
      </trkpt>
      <trkpt lat="44.83678" lon="5.39067">
        <ele>1300.8</ele>
        <time>2021-12-19T08:41:30Z</time>
      </trkpt>
      <trkpt lat="44.83678" lon="5.39067">
        <ele>1301.28</ele>
        <time>2021-12-19T08:41:55Z</time>
      </trkpt>
      <trkpt lat="44.83678" lon="5.39067">
        <ele>1300.8</ele>
        <time>2021-12-19T08:42:25Z</time>
      </trkpt>
      <trkpt lat="44.83674" lon="5.39067">
        <ele>1301.76</ele>
        <time>2021-12-19T08:42:44Z</time>
      </trkpt>
      <trkpt lat="44.83671" lon="5.39067">
        <ele>1301.28</ele>
        <time>2021-12-19T08:43:05Z</time>
      </trkpt>
      <trkpt lat="44.83672" lon="5.39066">
        <ele>1301.28</ele>
        <time>2021-12-19T08:43:28Z</time>
      </trkpt>
      <trkpt lat="44.83672" lon="5.39066">
        <ele>1300.8</ele>
        <time>2021-12-19T08:43:44Z</time>
      </trkpt>
      <trkpt lat="44.83672" lon="5.39066">
        <ele>1301.28</ele>
        <time>2021-12-19T08:44:04Z</time>
      </trkpt>
      <trkpt lat="44.83672" lon="5.39066">
        <ele>1300.8</ele>
        <time>2021-12-19T08:44:27Z</time>
      </trkpt>
      <trkpt lat="44.83674" lon="5.39066">
        <ele>1301.28</ele>
        <time>2021-12-19T08:44:50Z</time>
      </trkpt>
      <trkpt lat="44.83671" lon="5.39059">
        <ele>1301.76</ele>
        <time>2021-12-19T08:45:13Z</time>
      </trkpt>
      <trkpt lat="44.83669" lon="5.39055">
        <ele>1303.2</ele>
        <time>2021-12-19T08:45:19Z</time>
      </trkpt>
      <trkpt lat="44.83664" lon="5.39051">
        <ele>1304.65</ele>
        <time>2021-12-19T08:45:28Z</time>
      </trkpt>
      <trkpt lat="44.83658" lon="5.39037">
        <ele>1305.61</ele>
        <time>2021-12-19T08:45:43Z</time>
      </trkpt>
      <trkpt lat="44.83646" lon="5.3903">
        <ele>1306.57</ele>
        <time>2021-12-19T08:45:55Z</time>
      </trkpt>
      <trkpt lat="44.83639" lon="5.39005">
        <ele>1309.45</ele>
        <time>2021-12-19T08:46:12Z</time>
      </trkpt>
      <trkpt lat="44.8364" lon="5.38985">
        <ele>1310.41</ele>
        <time>2021-12-19T08:46:30Z</time>
      </trkpt>
      <trkpt lat="44.8365" lon="5.38976">
        <ele>1311.38</ele>
        <time>2021-12-19T08:46:47Z</time>
      </trkpt>
      <trkpt lat="44.83663" lon="5.38953">
        <ele>1315.22</ele>
        <time>2021-12-19T08:47:01Z</time>
      </trkpt>
      <trkpt lat="44.83668" lon="5.38949">
        <ele>1315.22</ele>
        <time>2021-12-19T08:47:20Z</time>
      </trkpt>
      <trkpt lat="44.83674" lon="5.38934">
        <ele>1316.18</ele>
        <time>2021-12-19T08:47:41Z</time>
      </trkpt>
      <trkpt lat="44.83674" lon="5.38924">
        <ele>1319.55</ele>
        <time>2021-12-19T08:47:48Z</time>
      </trkpt>
      <trkpt lat="44.83673" lon="5.38912">
        <ele>1320.51</ele>
        <time>2021-12-19T08:48:01Z</time>
      </trkpt>
      <trkpt lat="44.83659" lon="5.38906">
        <ele>1321.95</ele>
        <time>2021-12-19T08:48:16Z</time>
      </trkpt>
      <trkpt lat="44.83651" lon="5.38899">
        <ele>1322.43</ele>
        <time>2021-12-19T08:48:28Z</time>
      </trkpt>
      <trkpt lat="44.83643" lon="5.38888">
        <ele>1323.39</ele>
        <time>2021-12-19T08:48:39Z</time>
      </trkpt>
      <trkpt lat="44.83631" lon="5.38884">
        <ele>1324.35</ele>
        <time>2021-12-19T08:48:49Z</time>
      </trkpt>
      <trkpt lat="44.83626" lon="5.3888">
        <ele>1325.8</ele>
        <time>2021-12-19T08:48:56Z</time>
      </trkpt>
      <trkpt lat="44.83614" lon="5.38875">
        <ele>1326.76</ele>
        <time>2021-12-19T08:49:10Z</time>
      </trkpt>
      <trkpt lat="44.83603" lon="5.38861">
        <ele>1328.2</ele>
        <time>2021-12-19T08:49:24Z</time>
      </trkpt>
      <trkpt lat="44.83588" lon="5.38854">
        <ele>1329.64</ele>
        <time>2021-12-19T08:49:39Z</time>
      </trkpt>
      <trkpt lat="44.83581" lon="5.3885">
        <ele>1330.6</ele>
        <time>2021-12-19T08:49:52Z</time>
      </trkpt>
      <trkpt lat="44.8358" lon="5.38848">
        <ele>1331.08</ele>
        <time>2021-12-19T08:49:53Z</time>
      </trkpt>
      <trkpt lat="44.83567" lon="5.38841">
        <ele>1331.56</ele>
        <time>2021-12-19T08:50:04Z</time>
      </trkpt>
      <trkpt lat="44.83566" lon="5.38841">
        <ele>1332.52</ele>
        <time>2021-12-19T08:50:05Z</time>
      </trkpt>
      <trkpt lat="44.83559" lon="5.38838">
        <ele>1332.52</ele>
        <time>2021-12-19T08:50:10Z</time>
      </trkpt>
      <trkpt lat="44.83549" lon="5.3883">
        <ele>1334.93</ele>
        <time>2021-12-19T08:50:21Z</time>
      </trkpt>
      <trkpt lat="44.83543" lon="5.38821">
        <ele>1334.93</ele>
        <time>2021-12-19T08:50:32Z</time>
      </trkpt>
      <trkpt lat="44.83537" lon="5.38818">
        <ele>1335.89</ele>
        <time>2021-12-19T08:50:37Z</time>
      </trkpt>
      <trkpt lat="44.83534" lon="5.38814">
        <ele>1335.89</ele>
        <time>2021-12-19T08:50:40Z</time>
      </trkpt>
      <trkpt lat="44.83525" lon="5.38806">
        <ele>1336.37</ele>
        <time>2021-12-19T08:50:48Z</time>
      </trkpt>
      <trkpt lat="44.83513" lon="5.38799">
        <ele>1336.85</ele>
        <time>2021-12-19T08:51:01Z</time>
      </trkpt>
      <trkpt lat="44.83497" lon="5.38797">
        <ele>1338.77</ele>
        <time>2021-12-19T08:51:15Z</time>
      </trkpt>
      <trkpt lat="44.83486" lon="5.38785">
        <ele>1338.77</ele>
        <time>2021-12-19T08:51:28Z</time>
      </trkpt>
      <trkpt lat="44.83482" lon="5.38781">
        <ele>1339.73</ele>
        <time>2021-12-19T08:51:32Z</time>
      </trkpt>
      <trkpt lat="44.8348" lon="5.38775">
        <ele>1340.22</ele>
        <time>2021-12-19T08:51:36Z</time>
      </trkpt>
      <trkpt lat="44.8349" lon="5.38763">
        <ele>1340.22</ele>
        <time>2021-12-19T08:51:54Z</time>
      </trkpt>
      <trkpt lat="44.83508" lon="5.3876">
        <ele>1341.18</ele>
        <time>2021-12-19T08:52:11Z</time>
      </trkpt>
      <trkpt lat="44.83527" lon="5.38759">
        <ele>1342.14</ele>
        <time>2021-12-19T08:52:27Z</time>
      </trkpt>
      <trkpt lat="44.83541" lon="5.38752">
        <ele>1344.54</ele>
        <time>2021-12-19T08:52:42Z</time>
      </trkpt>
      <trkpt lat="44.83554" lon="5.38748">
        <ele>1345.5</ele>
        <time>2021-12-19T08:52:55Z</time>
      </trkpt>
      <trkpt lat="44.83561" lon="5.3875">
        <ele>1345.98</ele>
        <time>2021-12-19T08:53:09Z</time>
      </trkpt>
      <trkpt lat="44.83573" lon="5.3875">
        <ele>1346.94</ele>
        <time>2021-12-19T08:53:24Z</time>
      </trkpt>
      <trkpt lat="44.83582" lon="5.38752">
        <ele>1347.43</ele>
        <time>2021-12-19T08:53:40Z</time>
      </trkpt>
      <trkpt lat="44.83595" lon="5.38756">
        <ele>1348.39</ele>
        <time>2021-12-19T08:53:48Z</time>
      </trkpt>
      <trkpt lat="44.83605" lon="5.3875">
        <ele>1349.35</ele>
        <time>2021-12-19T08:53:56Z</time>
      </trkpt>
      <trkpt lat="44.83606" lon="5.38747">
        <ele>1348.87</ele>
        <time>2021-12-19T08:53:58Z</time>
      </trkpt>
      <trkpt lat="44.8361" lon="5.38741">
        <ele>1348.39</ele>
        <time>2021-12-19T08:54:03Z</time>
      </trkpt>
      <trkpt lat="44.83612" lon="5.38735">
        <ele>1348.87</ele>
        <time>2021-12-19T08:54:06Z</time>
      </trkpt>
      <trkpt lat="44.83614" lon="5.38724">
        <ele>1348.39</ele>
        <time>2021-12-19T08:54:12Z</time>
      </trkpt>
      <trkpt lat="44.83612" lon="5.38719">
        <ele>1349.83</ele>
        <time>2021-12-19T08:54:26Z</time>
      </trkpt>
      <trkpt lat="44.83612" lon="5.38719">
        <ele>1350.31</ele>
        <time>2021-12-19T08:54:56Z</time>
      </trkpt>
      <trkpt lat="44.8361" lon="5.38717">
        <ele>1349.35</ele>
        <time>2021-12-19T08:55:05Z</time>
      </trkpt>
      <trkpt lat="44.83607" lon="5.38711">
        <ele>1350.79</ele>
        <time>2021-12-19T08:55:10Z</time>
      </trkpt>
      <trkpt lat="44.83592" lon="5.38702">
        <ele>1351.27</ele>
        <time>2021-12-19T08:55:23Z</time>
      </trkpt>
      <trkpt lat="44.83579" lon="5.38696">
        <ele>1352.23</ele>
        <time>2021-12-19T08:55:35Z</time>
      </trkpt>
      <trkpt lat="44.83575" lon="5.38695">
        <ele>1352.71</ele>
        <time>2021-12-19T08:55:39Z</time>
      </trkpt>
      <trkpt lat="44.8357" lon="5.38695">
        <ele>1352.23</ele>
        <time>2021-12-19T08:55:47Z</time>
      </trkpt>
      <trkpt lat="44.83564" lon="5.38694">
        <ele>1353.19</ele>
        <time>2021-12-19T08:55:52Z</time>
      </trkpt>
      <trkpt lat="44.83556" lon="5.38692">
        <ele>1353.67</ele>
        <time>2021-12-19T08:55:59Z</time>
      </trkpt>
      <trkpt lat="44.83551" lon="5.38691">
        <ele>1353.67</ele>
        <time>2021-12-19T08:56:03Z</time>
      </trkpt>
      <trkpt lat="44.83545" lon="5.38688">
        <ele>1354.63</ele>
        <time>2021-12-19T08:56:16Z</time>
      </trkpt>
      <trkpt lat="44.83545" lon="5.38688">
        <ele>1354.15</ele>
        <time>2021-12-19T08:56:45Z</time>
      </trkpt>
      <trkpt lat="44.83544" lon="5.38687">
        <ele>1353.67</ele>
        <time>2021-12-19T08:56:58Z</time>
      </trkpt>
      <trkpt lat="44.83537" lon="5.38683">
        <ele>1355.12</ele>
        <time>2021-12-19T08:57:04Z</time>
      </trkpt>
      <trkpt lat="44.8353" lon="5.3868">
        <ele>1356.08</ele>
        <time>2021-12-19T08:57:12Z</time>
      </trkpt>
      <trkpt lat="44.83524" lon="5.38674">
        <ele>1357.52</ele>
        <time>2021-12-19T08:57:19Z</time>
      </trkpt>
      <trkpt lat="44.83512" lon="5.38664">
        <ele>1358</ele>
        <time>2021-12-19T08:57:32Z</time>
      </trkpt>
      <trkpt lat="44.83496" lon="5.38653">
        <ele>1358.96</ele>
        <time>2021-12-19T08:57:47Z</time>
      </trkpt>
      <trkpt lat="44.83481" lon="5.38648">
        <ele>1358.96</ele>
        <time>2021-12-19T08:58:00Z</time>
      </trkpt>
      <trkpt lat="44.83467" lon="5.38641">
        <ele>1358.48</ele>
        <time>2021-12-19T08:58:15Z</time>
      </trkpt>
      <trkpt lat="44.83452" lon="5.38639">
        <ele>1356.08</ele>
        <time>2021-12-19T08:58:31Z</time>
      </trkpt>
      <trkpt lat="44.83438" lon="5.38642">
        <ele>1356.56</ele>
        <time>2021-12-19T08:58:44Z</time>
      </trkpt>
      <trkpt lat="44.83423" lon="5.38647">
        <ele>1355.6</ele>
        <time>2021-12-19T08:59:00Z</time>
      </trkpt>
      <trkpt lat="44.83408" lon="5.38652">
        <ele>1353.19</ele>
        <time>2021-12-19T08:59:15Z</time>
      </trkpt>
      <trkpt lat="44.83406" lon="5.38652">
        <ele>1352.23</ele>
        <time>2021-12-19T08:59:21Z</time>
      </trkpt>
      <trkpt lat="44.83389" lon="5.38662">
        <ele>1350.31</ele>
        <time>2021-12-19T08:59:36Z</time>
      </trkpt>
      <trkpt lat="44.83373" lon="5.38676">
        <ele>1347.91</ele>
        <time>2021-12-19T08:59:52Z</time>
      </trkpt>
      <trkpt lat="44.8336" lon="5.38678">
        <ele>1347.91</ele>
        <time>2021-12-19T09:00:08Z</time>
      </trkpt>
      <trkpt lat="44.83342" lon="5.3869">
        <ele>1347.43</ele>
        <time>2021-12-19T09:00:24Z</time>
      </trkpt>
      <trkpt lat="44.83325" lon="5.38694">
        <ele>1347.43</ele>
        <time>2021-12-19T09:00:39Z</time>
      </trkpt>
      <trkpt lat="44.83322" lon="5.38695">
        <ele>1347.91</ele>
        <time>2021-12-19T09:00:41Z</time>
      </trkpt>
      <trkpt lat="44.83307" lon="5.38694">
        <ele>1348.87</ele>
        <time>2021-12-19T09:00:56Z</time>
      </trkpt>
      <trkpt lat="44.83297" lon="5.38694">
        <ele>1349.83</ele>
        <time>2021-12-19T09:01:08Z</time>
      </trkpt>
      <trkpt lat="44.8328" lon="5.38697">
        <ele>1349.35</ele>
        <time>2021-12-19T09:01:24Z</time>
      </trkpt>
      <trkpt lat="44.83264" lon="5.38698">
        <ele>1347.91</ele>
        <time>2021-12-19T09:01:40Z</time>
      </trkpt>
      <trkpt lat="44.83258" lon="5.38697">
        <ele>1347.91</ele>
        <time>2021-12-19T09:01:59Z</time>
      </trkpt>
      <trkpt lat="44.83244" lon="5.3869">
        <ele>1347.91</ele>
        <time>2021-12-19T09:02:12Z</time>
      </trkpt>
      <trkpt lat="44.83232" lon="5.38684">
        <ele>1349.35</ele>
        <time>2021-12-19T09:02:24Z</time>
      </trkpt>
      <trkpt lat="44.83227" lon="5.3868">
        <ele>1350.31</ele>
        <time>2021-12-19T09:02:29Z</time>
      </trkpt>
      <trkpt lat="44.83216" lon="5.38678">
        <ele>1352.71</ele>
        <time>2021-12-19T09:02:46Z</time>
      </trkpt>
      <trkpt lat="44.83206" lon="5.38672">
        <ele>1354.15</ele>
        <time>2021-12-19T09:03:01Z</time>
      </trkpt>
      <trkpt lat="44.83197" lon="5.38669">
        <ele>1355.12</ele>
        <time>2021-12-19T09:03:13Z</time>
      </trkpt>
      <trkpt lat="44.83191" lon="5.38666">
        <ele>1356.56</ele>
        <time>2021-12-19T09:03:27Z</time>
      </trkpt>
      <trkpt lat="44.83182" lon="5.38666">
        <ele>1358.96</ele>
        <time>2021-12-19T09:03:45Z</time>
      </trkpt>
      <trkpt lat="44.83168" lon="5.38666">
        <ele>1361.36</ele>
        <time>2021-12-19T09:04:01Z</time>
      </trkpt>
      <trkpt lat="44.83156" lon="5.38663">
        <ele>1361.36</ele>
        <time>2021-12-19T09:04:16Z</time>
      </trkpt>
      <trkpt lat="44.83141" lon="5.38659">
        <ele>1363.29</ele>
        <time>2021-12-19T09:04:32Z</time>
      </trkpt>
      <trkpt lat="44.83134" lon="5.38654">
        <ele>1363.29</ele>
        <time>2021-12-19T09:04:51Z</time>
      </trkpt>
      <trkpt lat="44.83133" lon="5.38653">
        <ele>1366.65</ele>
        <time>2021-12-19T09:04:52Z</time>
      </trkpt>
      <trkpt lat="44.83121" lon="5.38652">
        <ele>1367.13</ele>
        <time>2021-12-19T09:05:07Z</time>
      </trkpt>
      <trkpt lat="44.83119" lon="5.38652">
        <ele>1368.09</ele>
        <time>2021-12-19T09:05:09Z</time>
      </trkpt>
      <trkpt lat="44.83115" lon="5.38652">
        <ele>1371.46</ele>
        <time>2021-12-19T09:05:22Z</time>
      </trkpt>
      <trkpt lat="44.83111" lon="5.38648">
        <ele>1371.46</ele>
        <time>2021-12-19T09:05:28Z</time>
      </trkpt>
      <trkpt lat="44.831" lon="5.38641">
        <ele>1372.42</ele>
        <time>2021-12-19T09:05:40Z</time>
      </trkpt>
      <trkpt lat="44.83091" lon="5.38638">
        <ele>1374.82</ele>
        <time>2021-12-19T09:05:53Z</time>
      </trkpt>
      <trkpt lat="44.8309" lon="5.38638">
        <ele>1375.3</ele>
        <time>2021-12-19T09:05:55Z</time>
      </trkpt>
      <trkpt lat="44.83082" lon="5.3864">
        <ele>1376.26</ele>
        <time>2021-12-19T09:06:06Z</time>
      </trkpt>
      <trkpt lat="44.83081" lon="5.3864">
        <ele>1377.23</ele>
        <time>2021-12-19T09:06:08Z</time>
      </trkpt>
      <trkpt lat="44.83073" lon="5.38642">
        <ele>1379.63</ele>
        <time>2021-12-19T09:06:17Z</time>
      </trkpt>
      <trkpt lat="44.83071" lon="5.3864">
        <ele>1380.11</ele>
        <time>2021-12-19T09:06:20Z</time>
      </trkpt>
      <trkpt lat="44.83068" lon="5.38638">
        <ele>1380.11</ele>
        <time>2021-12-19T09:06:23Z</time>
      </trkpt>
      <trkpt lat="44.8306" lon="5.38629">
        <ele>1382.51</ele>
        <time>2021-12-19T09:06:35Z</time>
      </trkpt>
      <trkpt lat="44.83057" lon="5.38627">
        <ele>1381.55</ele>
        <time>2021-12-19T09:06:57Z</time>
      </trkpt>
      <trkpt lat="44.83054" lon="5.38625">
        <ele>1385.88</ele>
        <time>2021-12-19T09:07:01Z</time>
      </trkpt>
      <trkpt lat="44.83049" lon="5.38619">
        <ele>1385.88</ele>
        <time>2021-12-19T09:07:11Z</time>
      </trkpt>
      <trkpt lat="44.83044" lon="5.38614">
        <ele>1389.72</ele>
        <time>2021-12-19T09:07:23Z</time>
      </trkpt>
      <trkpt lat="44.83041" lon="5.38611">
        <ele>1390.68</ele>
        <time>2021-12-19T09:07:29Z</time>
      </trkpt>
      <trkpt lat="44.83034" lon="5.38607">
        <ele>1393.09</ele>
        <time>2021-12-19T09:07:39Z</time>
      </trkpt>
      <trkpt lat="44.83031" lon="5.38608">
        <ele>1392.61</ele>
        <time>2021-12-19T09:07:42Z</time>
      </trkpt>
      <trkpt lat="44.83026" lon="5.38599">
        <ele>1396.45</ele>
        <time>2021-12-19T09:07:54Z</time>
      </trkpt>
      <trkpt lat="44.8302" lon="5.38599">
        <ele>1398.37</ele>
        <time>2021-12-19T09:08:02Z</time>
      </trkpt>
      <trkpt lat="44.83017" lon="5.386">
        <ele>1398.86</ele>
        <time>2021-12-19T09:08:06Z</time>
      </trkpt>
      <trkpt lat="44.8301" lon="5.38601">
        <ele>1401.74</ele>
        <time>2021-12-19T09:08:16Z</time>
      </trkpt>
      <trkpt lat="44.83009" lon="5.38601">
        <ele>1400.78</ele>
        <time>2021-12-19T09:08:18Z</time>
      </trkpt>
      <trkpt lat="44.83002" lon="5.386">
        <ele>1402.22</ele>
        <time>2021-12-19T09:08:30Z</time>
      </trkpt>
      <trkpt lat="44.82997" lon="5.38597">
        <ele>1406.07</ele>
        <time>2021-12-19T09:08:39Z</time>
      </trkpt>
      <trkpt lat="44.82995" lon="5.38597">
        <ele>1406.55</ele>
        <time>2021-12-19T09:08:42Z</time>
      </trkpt>
      <trkpt lat="44.82992" lon="5.38597">
        <ele>1406.07</ele>
        <time>2021-12-19T09:08:44Z</time>
      </trkpt>
      <trkpt lat="44.82985" lon="5.38597">
        <ele>1408.47</ele>
        <time>2021-12-19T09:08:53Z</time>
      </trkpt>
      <trkpt lat="44.82982" lon="5.38598">
        <ele>1407.99</ele>
        <time>2021-12-19T09:08:56Z</time>
      </trkpt>
      <trkpt lat="44.82971" lon="5.38598">
        <ele>1412.31</ele>
        <time>2021-12-19T09:09:08Z</time>
      </trkpt>
      <trkpt lat="44.82969" lon="5.38604">
        <ele>1410.87</ele>
        <time>2021-12-19T09:09:23Z</time>
      </trkpt>
      <trkpt lat="44.82969" lon="5.38604">
        <ele>1410.39</ele>
        <time>2021-12-19T09:09:51Z</time>
      </trkpt>
      <trkpt lat="44.82969" lon="5.38604">
        <ele>1410.39</ele>
        <time>2021-12-19T09:10:17Z</time>
      </trkpt>
      <trkpt lat="44.82969" lon="5.38604">
        <ele>1410.87</ele>
        <time>2021-12-19T09:10:48Z</time>
      </trkpt>
      <trkpt lat="44.82969" lon="5.38604">
        <ele>1410.87</ele>
        <time>2021-12-19T09:11:15Z</time>
      </trkpt>
      <trkpt lat="44.82969" lon="5.38604">
        <ele>1410.39</ele>
        <time>2021-12-19T09:11:45Z</time>
      </trkpt>
      <trkpt lat="44.8297" lon="5.386">
        <ele>1409.91</ele>
        <time>2021-12-19T09:12:18Z</time>
      </trkpt>
      <trkpt lat="44.82973" lon="5.38593">
        <ele>1413.28</ele>
        <time>2021-12-19T09:12:26Z</time>
      </trkpt>
      <trkpt lat="44.8297" lon="5.38582">
        <ele>1415.2</ele>
        <time>2021-12-19T09:12:37Z</time>
      </trkpt>
      <trkpt lat="44.82969" lon="5.38577">
        <ele>1417.12</ele>
        <time>2021-12-19T09:12:43Z</time>
      </trkpt>
      <trkpt lat="44.82965" lon="5.38566">
        <ele>1419.52</ele>
        <time>2021-12-19T09:12:54Z</time>
      </trkpt>
      <trkpt lat="44.82964" lon="5.38558">
        <ele>1422.41</ele>
        <time>2021-12-19T09:13:03Z</time>
      </trkpt>
      <trkpt lat="44.82963" lon="5.38551">
        <ele>1423.85</ele>
        <time>2021-12-19T09:13:13Z</time>
      </trkpt>
      <trkpt lat="44.82962" lon="5.3855">
        <ele>1423.37</ele>
        <time>2021-12-19T09:13:14Z</time>
      </trkpt>
      <trkpt lat="44.82958" lon="5.3854">
        <ele>1426.73</ele>
        <time>2021-12-19T09:13:26Z</time>
      </trkpt>
      <trkpt lat="44.82952" lon="5.3853">
        <ele>1427.7</ele>
        <time>2021-12-19T09:13:39Z</time>
      </trkpt>
      <trkpt lat="44.82947" lon="5.38527">
        <ele>1431.06</ele>
        <time>2021-12-19T09:13:48Z</time>
      </trkpt>
      <trkpt lat="44.82944" lon="5.38525">
        <ele>1431.06</ele>
        <time>2021-12-19T09:13:53Z</time>
      </trkpt>
      <trkpt lat="44.82936" lon="5.38518">
        <ele>1434.91</ele>
        <time>2021-12-19T09:14:06Z</time>
      </trkpt>
      <trkpt lat="44.82936" lon="5.38507">
        <ele>1436.83</ele>
        <time>2021-12-19T09:14:18Z</time>
      </trkpt>
      <trkpt lat="44.82934" lon="5.38503">
        <ele>1438.75</ele>
        <time>2021-12-19T09:14:29Z</time>
      </trkpt>
      <trkpt lat="44.8293" lon="5.38494">
        <ele>1441.15</ele>
        <time>2021-12-19T09:14:41Z</time>
      </trkpt>
      <trkpt lat="44.82929" lon="5.38486">
        <ele>1442.6</ele>
        <time>2021-12-19T09:14:53Z</time>
      </trkpt>
      <trkpt lat="44.82928" lon="5.38479">
        <ele>1446.44</ele>
        <time>2021-12-19T09:15:03Z</time>
      </trkpt>
      <trkpt lat="44.8293" lon="5.3847">
        <ele>1448.36</ele>
        <time>2021-12-19T09:15:15Z</time>
      </trkpt>
      <trkpt lat="44.8293" lon="5.38459">
        <ele>1449.32</ele>
        <time>2021-12-19T09:15:28Z</time>
      </trkpt>
      <trkpt lat="44.82934" lon="5.38449">
        <ele>1452.69</ele>
        <time>2021-12-19T09:15:40Z</time>
      </trkpt>
      <trkpt lat="44.82933" lon="5.3844">
        <ele>1453.65</ele>
        <time>2021-12-19T09:15:53Z</time>
      </trkpt>
      <trkpt lat="44.82933" lon="5.38439">
        <ele>1456.53</ele>
        <time>2021-12-19T09:15:55Z</time>
      </trkpt>
      <trkpt lat="44.82928" lon="5.38434">
        <ele>1457.02</ele>
        <time>2021-12-19T09:16:06Z</time>
      </trkpt>
      <trkpt lat="44.82926" lon="5.3843">
        <ele>1458.46</ele>
        <time>2021-12-19T09:16:18Z</time>
      </trkpt>
      <trkpt lat="44.82925" lon="5.38425">
        <ele>1458.94</ele>
        <time>2021-12-19T09:16:35Z</time>
      </trkpt>
      <trkpt lat="44.82924" lon="5.38421">
        <ele>1460.38</ele>
        <time>2021-12-19T09:16:39Z</time>
      </trkpt>
      <trkpt lat="44.8292" lon="5.3841">
        <ele>1463.74</ele>
        <time>2021-12-19T09:16:52Z</time>
      </trkpt>
      <trkpt lat="44.82918" lon="5.38406">
        <ele>1465.67</ele>
        <time>2021-12-19T09:17:03Z</time>
      </trkpt>
      <trkpt lat="44.82918" lon="5.38399">
        <ele>1466.63</ele>
        <time>2021-12-19T09:17:12Z</time>
      </trkpt>
      <trkpt lat="44.82917" lon="5.3839">
        <ele>1469.51</ele>
        <time>2021-12-19T09:17:23Z</time>
      </trkpt>
      <trkpt lat="44.82917" lon="5.38386">
        <ele>1471.44</ele>
        <time>2021-12-19T09:17:27Z</time>
      </trkpt>
      <trkpt lat="44.82922" lon="5.38375">
        <ele>1472.4</ele>
        <time>2021-12-19T09:17:36Z</time>
      </trkpt>
      <trkpt lat="44.82925" lon="5.38371">
        <ele>1472.4</ele>
        <time>2021-12-19T09:17:40Z</time>
      </trkpt>
      <trkpt lat="44.82935" lon="5.38355">
        <ele>1473.36</ele>
        <time>2021-12-19T09:17:54Z</time>
      </trkpt>
      <trkpt lat="44.82935" lon="5.38353">
        <ele>1473.36</ele>
        <time>2021-12-19T09:17:56Z</time>
      </trkpt>
      <trkpt lat="44.82934" lon="5.38347">
        <ele>1475.28</ele>
        <time>2021-12-19T09:18:01Z</time>
      </trkpt>
      <trkpt lat="44.82935" lon="5.38342">
        <ele>1476.72</ele>
        <time>2021-12-19T09:18:06Z</time>
      </trkpt>
      <trkpt lat="44.82935" lon="5.38338">
        <ele>1476.72</ele>
        <time>2021-12-19T09:18:09Z</time>
      </trkpt>
      <trkpt lat="44.82939" lon="5.38324">
        <ele>1478.65</ele>
        <time>2021-12-19T09:18:20Z</time>
      </trkpt>
      <trkpt lat="44.82941" lon="5.38319">
        <ele>1478.65</ele>
        <time>2021-12-19T09:18:24Z</time>
      </trkpt>
      <trkpt lat="44.82945" lon="5.38312">
        <ele>1478.65</ele>
        <time>2021-12-19T09:18:37Z</time>
      </trkpt>
      <trkpt lat="44.82945" lon="5.38312">
        <ele>1478.65</ele>
        <time>2021-12-19T09:18:40Z</time>
      </trkpt>
      <trkpt lat="44.82954" lon="5.38294">
        <ele>1479.13</ele>
        <time>2021-12-19T09:18:54Z</time>
      </trkpt>
      <trkpt lat="44.82958" lon="5.3829">
        <ele>1478.16</ele>
        <time>2021-12-19T09:19:07Z</time>
      </trkpt>
      <trkpt lat="44.82957" lon="5.38292">
        <ele>1478.16</ele>
        <time>2021-12-19T09:19:26Z</time>
      </trkpt>
      <trkpt lat="44.82957" lon="5.38292">
        <ele>1478.16</ele>
        <time>2021-12-19T09:19:55Z</time>
      </trkpt>
      <trkpt lat="44.82957" lon="5.38292">
        <ele>1478.16</ele>
        <time>2021-12-19T09:20:18Z</time>
      </trkpt>
      <trkpt lat="44.82957" lon="5.38292">
        <ele>1478.16</ele>
        <time>2021-12-19T09:20:45Z</time>
      </trkpt>
      <trkpt lat="44.82959" lon="5.38293">
        <ele>1477.68</ele>
        <time>2021-12-19T09:21:05Z</time>
      </trkpt>
      <trkpt lat="44.82963" lon="5.38293">
        <ele>1477.2</ele>
        <time>2021-12-19T09:21:09Z</time>
      </trkpt>
      <trkpt lat="44.8297" lon="5.38291">
        <ele>1475.76</ele>
        <time>2021-12-19T09:21:16Z</time>
      </trkpt>
      <trkpt lat="44.82978" lon="5.3829">
        <ele>1473.84</ele>
        <time>2021-12-19T09:21:25Z</time>
      </trkpt>
      <trkpt lat="44.8298" lon="5.38287">
        <ele>1474.8</ele>
        <time>2021-12-19T09:21:31Z</time>
      </trkpt>
      <trkpt lat="44.82982" lon="5.38284">
        <ele>1474.8</ele>
        <time>2021-12-19T09:21:33Z</time>
      </trkpt>
      <trkpt lat="44.82983" lon="5.38281">
        <ele>1475.28</ele>
        <time>2021-12-19T09:21:36Z</time>
      </trkpt>
      <trkpt lat="44.82985" lon="5.38271">
        <ele>1476.72</ele>
        <time>2021-12-19T09:21:43Z</time>
      </trkpt>
      <trkpt lat="44.8299" lon="5.38253">
        <ele>1478.65</ele>
        <time>2021-12-19T09:21:56Z</time>
      </trkpt>
      <trkpt lat="44.82991" lon="5.38244">
        <ele>1480.09</ele>
        <time>2021-12-19T09:22:04Z</time>
      </trkpt>
      <trkpt lat="44.82992" lon="5.38241">
        <ele>1481.05</ele>
        <time>2021-12-19T09:22:07Z</time>
      </trkpt>
      <trkpt lat="44.82993" lon="5.38236">
        <ele>1481.53</ele>
        <time>2021-12-19T09:22:10Z</time>
      </trkpt>
      <trkpt lat="44.82997" lon="5.38221">
        <ele>1482.49</ele>
        <time>2021-12-19T09:22:22Z</time>
      </trkpt>
      <trkpt lat="44.83" lon="5.38218">
        <ele>1482.49</ele>
        <time>2021-12-19T09:22:31Z</time>
      </trkpt>
      <trkpt lat="44.83002" lon="5.38217">
        <ele>1482.49</ele>
        <time>2021-12-19T09:22:34Z</time>
      </trkpt>
      <trkpt lat="44.83017" lon="5.38211">
        <ele>1480.57</ele>
        <time>2021-12-19T09:22:47Z</time>
      </trkpt>
      <trkpt lat="44.83023" lon="5.38195">
        <ele>1478.65</ele>
        <time>2021-12-19T09:22:57Z</time>
      </trkpt>
      <trkpt lat="44.83032" lon="5.38177">
        <ele>1478.65</ele>
        <time>2021-12-19T09:23:09Z</time>
      </trkpt>
      <trkpt lat="44.83036" lon="5.38168">
        <ele>1477.68</ele>
        <time>2021-12-19T09:23:16Z</time>
      </trkpt>
      <trkpt lat="44.8304" lon="5.38146">
        <ele>1477.2</ele>
        <time>2021-12-19T09:23:28Z</time>
      </trkpt>
      <trkpt lat="44.83045" lon="5.3813">
        <ele>1480.57</ele>
        <time>2021-12-19T09:23:39Z</time>
      </trkpt>
      <trkpt lat="44.83045" lon="5.38129">
        <ele>1479.13</ele>
        <time>2021-12-19T09:23:41Z</time>
      </trkpt>
      <trkpt lat="44.83046" lon="5.38126">
        <ele>1481.53</ele>
        <time>2021-12-19T09:23:43Z</time>
      </trkpt>
      <trkpt lat="44.83049" lon="5.3812">
        <ele>1480.57</ele>
        <time>2021-12-19T09:23:48Z</time>
      </trkpt>
      <trkpt lat="44.83057" lon="5.381">
        <ele>1482.01</ele>
        <time>2021-12-19T09:24:01Z</time>
      </trkpt>
      <trkpt lat="44.83063" lon="5.38084">
        <ele>1483.45</ele>
        <time>2021-12-19T09:24:13Z</time>
      </trkpt>
      <trkpt lat="44.83063" lon="5.38083">
        <ele>1483.45</ele>
        <time>2021-12-19T09:24:14Z</time>
      </trkpt>
      <trkpt lat="44.83068" lon="5.38068">
        <ele>1484.89</ele>
        <time>2021-12-19T09:24:28Z</time>
      </trkpt>
      <trkpt lat="44.83068" lon="5.38067">
        <ele>1486.34</ele>
        <time>2021-12-19T09:24:29Z</time>
      </trkpt>
      <trkpt lat="44.83068" lon="5.38062">
        <ele>1486.82</ele>
        <time>2021-12-19T09:24:33Z</time>
      </trkpt>
      <trkpt lat="44.8307" lon="5.38053">
        <ele>1488.74</ele>
        <time>2021-12-19T09:24:42Z</time>
      </trkpt>
      <trkpt lat="44.83071" lon="5.38048">
        <ele>1489.22</ele>
        <time>2021-12-19T09:24:46Z</time>
      </trkpt>
      <trkpt lat="44.83074" lon="5.38041">
        <ele>1489.22</ele>
        <time>2021-12-19T09:24:52Z</time>
      </trkpt>
      <trkpt lat="44.83078" lon="5.38025">
        <ele>1490.66</ele>
        <time>2021-12-19T09:25:05Z</time>
      </trkpt>
      <trkpt lat="44.83078" lon="5.38024">
        <ele>1491.62</ele>
        <time>2021-12-19T09:25:06Z</time>
      </trkpt>
      <trkpt lat="44.83081" lon="5.38008">
        <ele>1491.62</ele>
        <time>2021-12-19T09:25:18Z</time>
      </trkpt>
      <trkpt lat="44.83084" lon="5.37996">
        <ele>1492.58</ele>
        <time>2021-12-19T09:25:26Z</time>
      </trkpt>
      <trkpt lat="44.83093" lon="5.37979">
        <ele>1493.06</ele>
        <time>2021-12-19T09:25:38Z</time>
      </trkpt>
      <trkpt lat="44.83099" lon="5.37961">
        <ele>1493.55</ele>
        <time>2021-12-19T09:25:49Z</time>
      </trkpt>
      <trkpt lat="44.83106" lon="5.37945">
        <ele>1493.06</ele>
        <time>2021-12-19T09:26:01Z</time>
      </trkpt>
      <trkpt lat="44.83106" lon="5.37944">
        <ele>1492.58</ele>
        <time>2021-12-19T09:26:02Z</time>
      </trkpt>
      <trkpt lat="44.83113" lon="5.37922">
        <ele>1493.06</ele>
        <time>2021-12-19T09:26:15Z</time>
      </trkpt>
      <trkpt lat="44.83121" lon="5.37913">
        <ele>1493.55</ele>
        <time>2021-12-19T09:26:23Z</time>
      </trkpt>
      <trkpt lat="44.83123" lon="5.37911">
        <ele>1493.55</ele>
        <time>2021-12-19T09:26:25Z</time>
      </trkpt>
      <trkpt lat="44.83132" lon="5.37903">
        <ele>1492.58</ele>
        <time>2021-12-19T09:26:36Z</time>
      </trkpt>
      <trkpt lat="44.83133" lon="5.37901">
        <ele>1493.55</ele>
        <time>2021-12-19T09:26:38Z</time>
      </trkpt>
      <trkpt lat="44.83131" lon="5.37898">
        <ele>1495.47</ele>
        <time>2021-12-19T09:26:49Z</time>
      </trkpt>
      <trkpt lat="44.83132" lon="5.37896">
        <ele>1494.51</ele>
        <time>2021-12-19T09:27:05Z</time>
      </trkpt>
      <trkpt lat="44.83132" lon="5.37891">
        <ele>1495.47</ele>
        <time>2021-12-19T09:27:08Z</time>
      </trkpt>
      <trkpt lat="44.83132" lon="5.37871">
        <ele>1496.43</ele>
        <time>2021-12-19T09:27:21Z</time>
      </trkpt>
      <trkpt lat="44.83132" lon="5.37865">
        <ele>1496.91</ele>
        <time>2021-12-19T09:27:37Z</time>
      </trkpt>
      <trkpt lat="44.83132" lon="5.37862">
        <ele>1496.91</ele>
        <time>2021-12-19T09:27:39Z</time>
      </trkpt>
      <trkpt lat="44.83131" lon="5.37857">
        <ele>1497.39</ele>
        <time>2021-12-19T09:27:42Z</time>
      </trkpt>
      <trkpt lat="44.83131" lon="5.37839">
        <ele>1498.83</ele>
        <time>2021-12-19T09:27:54Z</time>
      </trkpt>
      <trkpt lat="44.83131" lon="5.37832">
        <ele>1499.31</ele>
        <time>2021-12-19T09:27:59Z</time>
      </trkpt>
      <trkpt lat="44.8313" lon="5.37826">
        <ele>1500.76</ele>
        <time>2021-12-19T09:28:04Z</time>
      </trkpt>
      <trkpt lat="44.83129" lon="5.37816">
        <ele>1501.24</ele>
        <time>2021-12-19T09:28:12Z</time>
      </trkpt>
      <trkpt lat="44.83128" lon="5.37802">
        <ele>1504.12</ele>
        <time>2021-12-19T09:28:23Z</time>
      </trkpt>
      <trkpt lat="44.83129" lon="5.37798">
        <ele>1504.6</ele>
        <time>2021-12-19T09:28:26Z</time>
      </trkpt>
      <trkpt lat="44.83129" lon="5.37785">
        <ele>1506.52</ele>
        <time>2021-12-19T09:28:39Z</time>
      </trkpt>
      <trkpt lat="44.83127" lon="5.37773">
        <ele>1509.89</ele>
        <time>2021-12-19T09:28:49Z</time>
      </trkpt>
      <trkpt lat="44.83126" lon="5.37767">
        <ele>1511.81</ele>
        <time>2021-12-19T09:28:59Z</time>
      </trkpt>
      <trkpt lat="44.83125" lon="5.37764">
        <ele>1511.33</ele>
        <time>2021-12-19T09:29:03Z</time>
      </trkpt>
      <trkpt lat="44.83124" lon="5.37759">
        <ele>1512.77</ele>
        <time>2021-12-19T09:29:09Z</time>
      </trkpt>
      <trkpt lat="44.83121" lon="5.37749">
        <ele>1516.14</ele>
        <time>2021-12-19T09:29:20Z</time>
      </trkpt>
      <trkpt lat="44.8312" lon="5.37745">
        <ele>1516.62</ele>
        <time>2021-12-19T09:29:23Z</time>
      </trkpt>
      <trkpt lat="44.83117" lon="5.37737">
        <ele>1517.1</ele>
        <time>2021-12-19T09:29:31Z</time>
      </trkpt>
      <trkpt lat="44.83114" lon="5.37726">
        <ele>1520.46</ele>
        <time>2021-12-19T09:29:45Z</time>
      </trkpt>
      <trkpt lat="44.83114" lon="5.37719">
        <ele>1522.39</ele>
        <time>2021-12-19T09:29:54Z</time>
      </trkpt>
      <trkpt lat="44.83112" lon="5.37713">
        <ele>1524.79</ele>
        <time>2021-12-19T09:30:05Z</time>
      </trkpt>
      <trkpt lat="44.8311" lon="5.37708">
        <ele>1526.71</ele>
        <time>2021-12-19T09:30:13Z</time>
      </trkpt>
      <trkpt lat="44.83106" lon="5.37699">
        <ele>1529.11</ele>
        <time>2021-12-19T09:30:25Z</time>
      </trkpt>
      <trkpt lat="44.83105" lon="5.37696">
        <ele>1529.11</ele>
        <time>2021-12-19T09:30:29Z</time>
      </trkpt>
      <trkpt lat="44.83102" lon="5.37686">
        <ele>1532.96</ele>
        <time>2021-12-19T09:30:40Z</time>
      </trkpt>
      <trkpt lat="44.831" lon="5.37678">
        <ele>1534.4</ele>
        <time>2021-12-19T09:30:49Z</time>
      </trkpt>
      <trkpt lat="44.83099" lon="5.37672">
        <ele>1534.88</ele>
        <time>2021-12-19T09:30:54Z</time>
      </trkpt>
      <trkpt lat="44.83096" lon="5.37665">
        <ele>1536.32</ele>
        <time>2021-12-19T09:31:11Z</time>
      </trkpt>
      <trkpt lat="44.83094" lon="5.37667">
        <ele>1535.84</ele>
        <time>2021-12-19T09:31:26Z</time>
      </trkpt>
      <trkpt lat="44.83094" lon="5.37667">
        <ele>1535.84</ele>
        <time>2021-12-19T09:31:56Z</time>
      </trkpt>
      <trkpt lat="44.83094" lon="5.37667">
        <ele>1536.32</ele>
        <time>2021-12-19T09:32:14Z</time>
      </trkpt>
      <trkpt lat="44.83094" lon="5.37664">
        <ele>1536.32</ele>
        <time>2021-12-19T09:32:22Z</time>
      </trkpt>
      <trkpt lat="44.8309" lon="5.37661">
        <ele>1536.8</ele>
        <time>2021-12-19T09:32:27Z</time>
      </trkpt>
      <trkpt lat="44.83081" lon="5.37658">
        <ele>1539.21</ele>
        <time>2021-12-19T09:32:38Z</time>
      </trkpt>
      <trkpt lat="44.83079" lon="5.37656">
        <ele>1538.73</ele>
        <time>2021-12-19T09:32:40Z</time>
      </trkpt>
      <trkpt lat="44.83074" lon="5.37653">
        <ele>1540.17</ele>
        <time>2021-12-19T09:32:45Z</time>
      </trkpt>
      <trkpt lat="44.83063" lon="5.37648">
        <ele>1542.09</ele>
        <time>2021-12-19T09:32:57Z</time>
      </trkpt>
      <trkpt lat="44.83057" lon="5.37645">
        <ele>1541.61</ele>
        <time>2021-12-19T09:33:03Z</time>
      </trkpt>
      <trkpt lat="44.83052" lon="5.37645">
        <ele>1543.53</ele>
        <time>2021-12-19T09:33:17Z</time>
      </trkpt>
      <trkpt lat="44.83052" lon="5.37645">
        <ele>1543.05</ele>
        <time>2021-12-19T09:33:31Z</time>
      </trkpt>
      <trkpt lat="44.83039" lon="5.37638">
        <ele>1546.42</ele>
        <time>2021-12-19T09:33:44Z</time>
      </trkpt>
      <trkpt lat="44.83034" lon="5.37635">
        <ele>1546.9</ele>
        <time>2021-12-19T09:33:49Z</time>
      </trkpt>
      <trkpt lat="44.8302" lon="5.37622">
        <ele>1546.9</ele>
        <time>2021-12-19T09:34:03Z</time>
      </trkpt>
      <trkpt lat="44.83009" lon="5.37609">
        <ele>1549.78</ele>
        <time>2021-12-19T09:34:15Z</time>
      </trkpt>
      <trkpt lat="44.83003" lon="5.37601">
        <ele>1550.74</ele>
        <time>2021-12-19T09:34:22Z</time>
      </trkpt>
      <trkpt lat="44.82998" lon="5.37595">
        <ele>1550.74</ele>
        <time>2021-12-19T09:34:28Z</time>
      </trkpt>
      <trkpt lat="44.82987" lon="5.37581">
        <ele>1551.22</ele>
        <time>2021-12-19T09:34:41Z</time>
      </trkpt>
      <trkpt lat="44.8298" lon="5.37566">
        <ele>1550.74</ele>
        <time>2021-12-19T09:34:52Z</time>
      </trkpt>
      <trkpt lat="44.82977" lon="5.37561">
        <ele>1550.74</ele>
        <time>2021-12-19T09:35:04Z</time>
      </trkpt>
      <trkpt lat="44.82977" lon="5.37561">
        <ele>1550.74</ele>
        <time>2021-12-19T09:35:34Z</time>
      </trkpt>
      <trkpt lat="44.82977" lon="5.37561">
        <ele>1550.74</ele>
        <time>2021-12-19T09:36:00Z</time>
      </trkpt>
      <trkpt lat="44.82971" lon="5.37543">
        <ele>1549.3</ele>
        <time>2021-12-19T09:36:10Z</time>
      </trkpt>
      <trkpt lat="44.82966" lon="5.37534">
        <ele>1547.38</ele>
        <time>2021-12-19T09:36:24Z</time>
      </trkpt>
      <trkpt lat="44.82959" lon="5.37526">
        <ele>1545.46</ele>
        <time>2021-12-19T09:36:38Z</time>
      </trkpt>
      <trkpt lat="44.82952" lon="5.37517">
        <ele>1544.5</ele>
        <time>2021-12-19T09:36:52Z</time>
      </trkpt>
      <trkpt lat="44.82942" lon="5.37505">
        <ele>1543.05</ele>
        <time>2021-12-19T09:37:00Z</time>
      </trkpt>
      <trkpt lat="44.82932" lon="5.37496">
        <ele>1543.05</ele>
        <time>2021-12-19T09:37:09Z</time>
      </trkpt>
      <trkpt lat="44.82925" lon="5.37487">
        <ele>1542.57</ele>
        <time>2021-12-19T09:37:16Z</time>
      </trkpt>
      <trkpt lat="44.8291" lon="5.37467">
        <ele>1542.09</ele>
        <time>2021-12-19T09:37:29Z</time>
      </trkpt>
      <trkpt lat="44.82902" lon="5.37457">
        <ele>1540.17</ele>
        <time>2021-12-19T09:37:42Z</time>
      </trkpt>
      <trkpt lat="44.82897" lon="5.37457">
        <ele>1541.61</ele>
        <time>2021-12-19T09:37:55Z</time>
      </trkpt>
      <trkpt lat="44.82894" lon="5.37456">
        <ele>1542.09</ele>
        <time>2021-12-19T09:38:09Z</time>
      </trkpt>
      <trkpt lat="44.82883" lon="5.3745">
        <ele>1542.57</ele>
        <time>2021-12-19T09:38:21Z</time>
      </trkpt>
      <trkpt lat="44.82872" lon="5.37445">
        <ele>1543.05</ele>
        <time>2021-12-19T09:38:28Z</time>
      </trkpt>
      <trkpt lat="44.82859" lon="5.37436">
        <ele>1543.05</ele>
        <time>2021-12-19T09:38:39Z</time>
      </trkpt>
      <trkpt lat="44.82854" lon="5.37428">
        <ele>1542.09</ele>
        <time>2021-12-19T09:38:45Z</time>
      </trkpt>
      <trkpt lat="44.82847" lon="5.3742">
        <ele>1541.13</ele>
        <time>2021-12-19T09:38:58Z</time>
      </trkpt>
      <trkpt lat="44.82844" lon="5.37418">
        <ele>1540.65</ele>
        <time>2021-12-19T09:39:13Z</time>
      </trkpt>
      <trkpt lat="44.82843" lon="5.37417">
        <ele>1540.17</ele>
        <time>2021-12-19T09:39:41Z</time>
      </trkpt>
      <trkpt lat="44.82842" lon="5.37417">
        <ele>1540.17</ele>
        <time>2021-12-19T09:39:58Z</time>
      </trkpt>
      <trkpt lat="44.82842" lon="5.37417">
        <ele>1540.17</ele>
        <time>2021-12-19T09:40:23Z</time>
      </trkpt>
      <trkpt lat="44.82842" lon="5.37417">
        <ele>1540.17</ele>
        <time>2021-12-19T09:40:47Z</time>
      </trkpt>
      <trkpt lat="44.82841" lon="5.37416">
        <ele>1540.65</ele>
        <time>2021-12-19T09:41:15Z</time>
      </trkpt>
      <trkpt lat="44.8284" lon="5.37416">
        <ele>1540.17</ele>
        <time>2021-12-19T09:41:27Z</time>
      </trkpt>
      <trkpt lat="44.82826" lon="5.37408">
        <ele>1540.65</ele>
        <time>2021-12-19T09:41:38Z</time>
      </trkpt>
      <trkpt lat="44.82824" lon="5.37407">
        <ele>1540.17</ele>
        <time>2021-12-19T09:41:55Z</time>
      </trkpt>
      <trkpt lat="44.82823" lon="5.37407">
        <ele>1541.13</ele>
        <time>2021-12-19T09:42:23Z</time>
      </trkpt>
      <trkpt lat="44.82809" lon="5.374">
        <ele>1541.61</ele>
        <time>2021-12-19T09:42:35Z</time>
      </trkpt>
      <trkpt lat="44.8279" lon="5.37392">
        <ele>1543.05</ele>
        <time>2021-12-19T09:42:50Z</time>
      </trkpt>
      <trkpt lat="44.82788" lon="5.3739">
        <ele>1542.57</ele>
        <time>2021-12-19T09:42:52Z</time>
      </trkpt>
      <trkpt lat="44.82773" lon="5.3738">
        <ele>1545.46</ele>
        <time>2021-12-19T09:43:08Z</time>
      </trkpt>
      <trkpt lat="44.82771" lon="5.37379">
        <ele>1545.94</ele>
        <time>2021-12-19T09:43:20Z</time>
      </trkpt>
      <trkpt lat="44.82753" lon="5.37362">
        <ele>1545.94</ele>
        <time>2021-12-19T09:43:35Z</time>
      </trkpt>
      <trkpt lat="44.82747" lon="5.37357">
        <ele>1545.46</ele>
        <time>2021-12-19T09:44:03Z</time>
      </trkpt>
      <trkpt lat="44.82738" lon="5.37351">
        <ele>1545.94</ele>
        <time>2021-12-19T09:44:17Z</time>
      </trkpt>
      <trkpt lat="44.82727" lon="5.37347">
        <ele>1547.86</ele>
        <time>2021-12-19T09:44:31Z</time>
      </trkpt>
      <trkpt lat="44.82724" lon="5.37346">
        <ele>1547.86</ele>
        <time>2021-12-19T09:44:34Z</time>
      </trkpt>
      <trkpt lat="44.82715" lon="5.37332">
        <ele>1544.98</ele>
        <time>2021-12-19T09:44:47Z</time>
      </trkpt>
      <trkpt lat="44.82711" lon="5.37326">
        <ele>1544.01</ele>
        <time>2021-12-19T09:44:59Z</time>
      </trkpt>
      <trkpt lat="44.82708" lon="5.37319">
        <ele>1541.61</ele>
        <time>2021-12-19T09:45:10Z</time>
      </trkpt>
      <trkpt lat="44.82705" lon="5.37318">
        <ele>1542.09</ele>
        <time>2021-12-19T09:45:15Z</time>
      </trkpt>
      <trkpt lat="44.82703" lon="5.37318">
        <ele>1542.57</ele>
        <time>2021-12-19T09:45:18Z</time>
      </trkpt>
      <trkpt lat="44.82699" lon="5.37317">
        <ele>1542.09</ele>
        <time>2021-12-19T09:45:21Z</time>
      </trkpt>
      <trkpt lat="44.82693" lon="5.37318">
        <ele>1544.5</ele>
        <time>2021-12-19T09:45:32Z</time>
      </trkpt>
      <trkpt lat="44.82689" lon="5.37316">
        <ele>1544.01</ele>
        <time>2021-12-19T09:45:48Z</time>
      </trkpt>
      <trkpt lat="44.82689" lon="5.37316">
        <ele>1544.01</ele>
        <time>2021-12-19T09:46:01Z</time>
      </trkpt>
      <trkpt lat="44.82686" lon="5.37311">
        <ele>1543.05</ele>
        <time>2021-12-19T09:46:06Z</time>
      </trkpt>
      <trkpt lat="44.82676" lon="5.37296">
        <ele>1540.65</ele>
        <time>2021-12-19T09:46:19Z</time>
      </trkpt>
      <trkpt lat="44.82669" lon="5.37284">
        <ele>1538.25</ele>
        <time>2021-12-19T09:46:30Z</time>
      </trkpt>
      <trkpt lat="44.82667" lon="5.37281">
        <ele>1537.29</ele>
        <time>2021-12-19T09:46:33Z</time>
      </trkpt>
      <trkpt lat="44.82663" lon="5.37277">
        <ele>1536.8</ele>
        <time>2021-12-19T09:46:38Z</time>
      </trkpt>
      <trkpt lat="44.8266" lon="5.37275">
        <ele>1535.84</ele>
        <time>2021-12-19T09:46:41Z</time>
      </trkpt>
      <trkpt lat="44.82651" lon="5.37263">
        <ele>1533.44</ele>
        <time>2021-12-19T09:46:54Z</time>
      </trkpt>
      <trkpt lat="44.82646" lon="5.37256">
        <ele>1532.48</ele>
        <time>2021-12-19T09:47:00Z</time>
      </trkpt>
      <trkpt lat="44.82639" lon="5.37243">
        <ele>1531.04</ele>
        <time>2021-12-19T09:47:13Z</time>
      </trkpt>
      <trkpt lat="44.82636" lon="5.3724">
        <ele>1529.11</ele>
        <time>2021-12-19T09:47:18Z</time>
      </trkpt>
      <trkpt lat="44.82635" lon="5.37238">
        <ele>1529.11</ele>
        <time>2021-12-19T09:47:22Z</time>
      </trkpt>
      <trkpt lat="44.82628" lon="5.3723">
        <ele>1527.19</ele>
        <time>2021-12-19T09:47:33Z</time>
      </trkpt>
      <trkpt lat="44.82625" lon="5.37225">
        <ele>1526.71</ele>
        <time>2021-12-19T09:47:38Z</time>
      </trkpt>
      <trkpt lat="44.82616" lon="5.37211">
        <ele>1524.79</ele>
        <time>2021-12-19T09:47:51Z</time>
      </trkpt>
      <trkpt lat="44.82606" lon="5.372">
        <ele>1522.87</ele>
        <time>2021-12-19T09:48:05Z</time>
      </trkpt>
      <trkpt lat="44.82598" lon="5.37191">
        <ele>1521.42</ele>
        <time>2021-12-19T09:48:14Z</time>
      </trkpt>
      <trkpt lat="44.82589" lon="5.37177">
        <ele>1519.98</ele>
        <time>2021-12-19T09:48:26Z</time>
      </trkpt>
      <trkpt lat="44.82577" lon="5.37166">
        <ele>1519.5</ele>
        <time>2021-12-19T09:48:38Z</time>
      </trkpt>
      <trkpt lat="44.82577" lon="5.37165">
        <ele>1519.5</ele>
        <time>2021-12-19T09:48:39Z</time>
      </trkpt>
      <trkpt lat="44.82565" lon="5.37155">
        <ele>1519.02</ele>
        <time>2021-12-19T09:48:52Z</time>
      </trkpt>
      <trkpt lat="44.82564" lon="5.37155">
        <ele>1519.02</ele>
        <time>2021-12-19T09:48:53Z</time>
      </trkpt>
      <trkpt lat="44.82556" lon="5.37147">
        <ele>1518.54</ele>
        <time>2021-12-19T09:49:01Z</time>
      </trkpt>
      <trkpt lat="44.82543" lon="5.37136">
        <ele>1519.5</ele>
        <time>2021-12-19T09:49:14Z</time>
      </trkpt>
      <trkpt lat="44.8254" lon="5.37135">
        <ele>1519.5</ele>
        <time>2021-12-19T09:49:17Z</time>
      </trkpt>
      <trkpt lat="44.82533" lon="5.37131">
        <ele>1519.5</ele>
        <time>2021-12-19T09:49:29Z</time>
      </trkpt>
      <trkpt lat="44.82526" lon="5.37129">
        <ele>1519.5</ele>
        <time>2021-12-19T09:49:37Z</time>
      </trkpt>
      <trkpt lat="44.82512" lon="5.37119">
        <ele>1519.98</ele>
        <time>2021-12-19T09:49:49Z</time>
      </trkpt>
      <trkpt lat="44.82508" lon="5.37116">
        <ele>1520.46</ele>
        <time>2021-12-19T09:49:55Z</time>
      </trkpt>
      <trkpt lat="44.82505" lon="5.37115">
        <ele>1520.46</ele>
        <time>2021-12-19T09:49:58Z</time>
      </trkpt>
      <trkpt lat="44.82492" lon="5.37104">
        <ele>1519.98</ele>
        <time>2021-12-19T09:50:11Z</time>
      </trkpt>
      <trkpt lat="44.82486" lon="5.37099">
        <ele>1519.5</ele>
        <time>2021-12-19T09:50:17Z</time>
      </trkpt>
      <trkpt lat="44.82481" lon="5.37096">
        <ele>1520.94</ele>
        <time>2021-12-19T09:50:23Z</time>
      </trkpt>
      <trkpt lat="44.82477" lon="5.37096">
        <ele>1520.94</ele>
        <time>2021-12-19T09:50:27Z</time>
      </trkpt>
      <trkpt lat="44.82469" lon="5.37091">
        <ele>1521.9</ele>
        <time>2021-12-19T09:50:39Z</time>
      </trkpt>
      <trkpt lat="44.82465" lon="5.37089">
        <ele>1521.42</ele>
        <time>2021-12-19T09:50:44Z</time>
      </trkpt>
      <trkpt lat="44.82461" lon="5.3708">
        <ele>1520.46</ele>
        <time>2021-12-19T09:50:55Z</time>
      </trkpt>
      <trkpt lat="44.82458" lon="5.37077">
        <ele>1519.98</ele>
        <time>2021-12-19T09:50:59Z</time>
      </trkpt>
      <trkpt lat="44.82456" lon="5.37075">
        <ele>1520.46</ele>
        <time>2021-12-19T09:51:01Z</time>
      </trkpt>
      <trkpt lat="44.82453" lon="5.37072">
        <ele>1520.46</ele>
        <time>2021-12-19T09:51:05Z</time>
      </trkpt>
      <trkpt lat="44.82449" lon="5.3707">
        <ele>1520.46</ele>
        <time>2021-12-19T09:51:09Z</time>
      </trkpt>
      <trkpt lat="44.82438" lon="5.37064">
        <ele>1520.94</ele>
        <time>2021-12-19T09:51:20Z</time>
      </trkpt>
      <trkpt lat="44.82434" lon="5.37063">
        <ele>1521.9</ele>
        <time>2021-12-19T09:51:24Z</time>
      </trkpt>
      <trkpt lat="44.82433" lon="5.3706">
        <ele>1521.42</ele>
        <time>2021-12-19T09:51:27Z</time>
      </trkpt>
      <trkpt lat="44.8243" lon="5.37058">
        <ele>1521.42</ele>
        <time>2021-12-19T09:51:30Z</time>
      </trkpt>
      <trkpt lat="44.82424" lon="5.37053">
        <ele>1521.9</ele>
        <time>2021-12-19T09:51:36Z</time>
      </trkpt>
      <trkpt lat="44.82417" lon="5.37047">
        <ele>1522.39</ele>
        <time>2021-12-19T09:51:45Z</time>
      </trkpt>
      <trkpt lat="44.82408" lon="5.37039">
        <ele>1522.39</ele>
        <time>2021-12-19T09:51:54Z</time>
      </trkpt>
      <trkpt lat="44.824" lon="5.37028">
        <ele>1521.42</ele>
        <time>2021-12-19T09:52:05Z</time>
      </trkpt>
      <trkpt lat="44.82399" lon="5.3702">
        <ele>1519.98</ele>
        <time>2021-12-19T09:52:13Z</time>
      </trkpt>
      <trkpt lat="44.82401" lon="5.3701">
        <ele>1517.1</ele>
        <time>2021-12-19T09:52:26Z</time>
      </trkpt>
      <trkpt lat="44.82404" lon="5.37009">
        <ele>1516.14</ele>
        <time>2021-12-19T09:52:41Z</time>
      </trkpt>
      <trkpt lat="44.82405" lon="5.37009">
        <ele>1516.14</ele>
        <time>2021-12-19T09:53:02Z</time>
      </trkpt>
      <trkpt lat="44.82404" lon="5.37009">
        <ele>1516.14</ele>
        <time>2021-12-19T09:53:34Z</time>
      </trkpt>
      <trkpt lat="44.82407" lon="5.37002">
        <ele>1513.73</ele>
        <time>2021-12-19T09:53:54Z</time>
      </trkpt>
      <trkpt lat="44.82411" lon="5.36996">
        <ele>1512.29</ele>
        <time>2021-12-19T09:54:04Z</time>
      </trkpt>
      <trkpt lat="44.82411" lon="5.36995">
        <ele>1511.81</ele>
        <time>2021-12-19T09:54:10Z</time>
      </trkpt>
      <trkpt lat="44.82412" lon="5.36987">
        <ele>1509.89</ele>
        <time>2021-12-19T09:54:18Z</time>
      </trkpt>
      <trkpt lat="44.82415" lon="5.36976">
        <ele>1507</ele>
        <time>2021-12-19T09:54:26Z</time>
      </trkpt>
      <trkpt lat="44.82418" lon="5.36965">
        <ele>1503.16</ele>
        <time>2021-12-19T09:54:36Z</time>
      </trkpt>
      <trkpt lat="44.82416" lon="5.36954">
        <ele>1500.27</ele>
        <time>2021-12-19T09:54:48Z</time>
      </trkpt>
      <trkpt lat="44.82413" lon="5.36944">
        <ele>1497.39</ele>
        <time>2021-12-19T09:54:59Z</time>
      </trkpt>
      <trkpt lat="44.82411" lon="5.3694">
        <ele>1497.87</ele>
        <time>2021-12-19T09:55:06Z</time>
      </trkpt>
      <trkpt lat="44.82408" lon="5.36936">
        <ele>1497.87</ele>
        <time>2021-12-19T09:55:09Z</time>
      </trkpt>
      <trkpt lat="44.82406" lon="5.36931">
        <ele>1497.87</ele>
        <time>2021-12-19T09:55:13Z</time>
      </trkpt>
      <trkpt lat="44.82404" lon="5.36922">
        <ele>1495.47</ele>
        <time>2021-12-19T09:55:26Z</time>
      </trkpt>
      <trkpt lat="44.82399" lon="5.36912">
        <ele>1494.51</ele>
        <time>2021-12-19T09:55:36Z</time>
      </trkpt>
      <trkpt lat="44.82397" lon="5.36908">
        <ele>1494.99</ele>
        <time>2021-12-19T09:55:39Z</time>
      </trkpt>
      <trkpt lat="44.82388" lon="5.36902">
        <ele>1495.47</ele>
        <time>2021-12-19T09:55:52Z</time>
      </trkpt>
      <trkpt lat="44.8238" lon="5.36902">
        <ele>1497.39</ele>
        <time>2021-12-19T09:56:03Z</time>
      </trkpt>
      <trkpt lat="44.82379" lon="5.36902">
        <ele>1497.39</ele>
        <time>2021-12-19T09:56:05Z</time>
      </trkpt>
      <trkpt lat="44.82375" lon="5.36903">
        <ele>1498.35</ele>
        <time>2021-12-19T09:56:11Z</time>
      </trkpt>
      <trkpt lat="44.82372" lon="5.36902">
        <ele>1499.79</ele>
        <time>2021-12-19T09:56:15Z</time>
      </trkpt>
      <trkpt lat="44.82367" lon="5.36902">
        <ele>1500.76</ele>
        <time>2021-12-19T09:56:21Z</time>
      </trkpt>
      <trkpt lat="44.82359" lon="5.36905">
        <ele>1502.68</ele>
        <time>2021-12-19T09:56:31Z</time>
      </trkpt>
      <trkpt lat="44.82357" lon="5.36906">
        <ele>1503.16</ele>
        <time>2021-12-19T09:56:34Z</time>
      </trkpt>
      <trkpt lat="44.82355" lon="5.36906">
        <ele>1504.12</ele>
        <time>2021-12-19T09:56:37Z</time>
      </trkpt>
      <trkpt lat="44.82351" lon="5.36905">
        <ele>1505.08</ele>
        <time>2021-12-19T09:56:42Z</time>
      </trkpt>
      <trkpt lat="44.82341" lon="5.36902">
        <ele>1507</ele>
        <time>2021-12-19T09:56:52Z</time>
      </trkpt>
      <trkpt lat="44.82338" lon="5.36903">
        <ele>1507.48</ele>
        <time>2021-12-19T09:56:56Z</time>
      </trkpt>
      <trkpt lat="44.82336" lon="5.36903">
        <ele>1507.48</ele>
        <time>2021-12-19T09:56:58Z</time>
      </trkpt>
      <trkpt lat="44.82326" lon="5.36903">
        <ele>1509.89</ele>
        <time>2021-12-19T09:57:09Z</time>
      </trkpt>
      <trkpt lat="44.82324" lon="5.36904">
        <ele>1510.37</ele>
        <time>2021-12-19T09:57:12Z</time>
      </trkpt>
      <trkpt lat="44.82321" lon="5.36904">
        <ele>1510.85</ele>
        <time>2021-12-19T09:57:15Z</time>
      </trkpt>
      <trkpt lat="44.82318" lon="5.36905">
        <ele>1511.33</ele>
        <time>2021-12-19T09:57:18Z</time>
      </trkpt>
      <trkpt lat="44.82306" lon="5.36905">
        <ele>1513.73</ele>
        <time>2021-12-19T09:57:30Z</time>
      </trkpt>
      <trkpt lat="44.82304" lon="5.36904">
        <ele>1514.69</ele>
        <time>2021-12-19T09:57:33Z</time>
      </trkpt>
      <trkpt lat="44.82292" lon="5.36905">
        <ele>1517.1</ele>
        <time>2021-12-19T09:57:46Z</time>
      </trkpt>
      <trkpt lat="44.8229" lon="5.36906">
        <ele>1518.06</ele>
        <time>2021-12-19T09:57:55Z</time>
      </trkpt>
      <trkpt lat="44.82288" lon="5.36906">
        <ele>1517.58</ele>
        <time>2021-12-19T09:58:09Z</time>
      </trkpt>
      <trkpt lat="44.82285" lon="5.36905">
        <ele>1518.06</ele>
        <time>2021-12-19T09:58:22Z</time>
      </trkpt>
      <trkpt lat="44.82284" lon="5.36906">
        <ele>1518.06</ele>
        <time>2021-12-19T09:58:40Z</time>
      </trkpt>
      <trkpt lat="44.82284" lon="5.36906">
        <ele>1518.06</ele>
        <time>2021-12-19T09:59:06Z</time>
      </trkpt>
      <trkpt lat="44.82285" lon="5.36906">
        <ele>1517.58</ele>
        <time>2021-12-19T09:59:27Z</time>
      </trkpt>
      <trkpt lat="44.82285" lon="5.36906">
        <ele>1517.58</ele>
        <time>2021-12-19T09:59:46Z</time>
      </trkpt>
      <trkpt lat="44.82286" lon="5.36911">
        <ele>1518.54</ele>
        <time>2021-12-19T10:00:02Z</time>
      </trkpt>
      <trkpt lat="44.82286" lon="5.36911">
        <ele>1518.54</ele>
        <time>2021-12-19T10:00:27Z</time>
      </trkpt>
      <trkpt lat="44.82285" lon="5.36909">
        <ele>1518.06</ele>
        <time>2021-12-19T10:00:37Z</time>
      </trkpt>
      <trkpt lat="44.82284" lon="5.36907">
        <ele>1518.06</ele>
        <time>2021-12-19T10:00:55Z</time>
      </trkpt>
      <trkpt lat="44.82284" lon="5.36906">
        <ele>1518.54</ele>
        <time>2021-12-19T10:01:16Z</time>
      </trkpt>
      <trkpt lat="44.82285" lon="5.36906">
        <ele>1518.06</ele>
        <time>2021-12-19T10:01:35Z</time>
      </trkpt>
      <trkpt lat="44.82284" lon="5.36905">
        <ele>1517.58</ele>
        <time>2021-12-19T10:01:59Z</time>
      </trkpt>
      <trkpt lat="44.82284" lon="5.36905">
        <ele>1517.58</ele>
        <time>2021-12-19T10:02:28Z</time>
      </trkpt>
      <trkpt lat="44.82284" lon="5.36905">
        <ele>1517.58</ele>
        <time>2021-12-19T10:02:51Z</time>
      </trkpt>
      <trkpt lat="44.82287" lon="5.36906">
        <ele>1517.58</ele>
        <time>2021-12-19T10:03:10Z</time>
      </trkpt>
      <trkpt lat="44.82287" lon="5.36906">
        <ele>1517.58</ele>
        <time>2021-12-19T10:03:31Z</time>
      </trkpt>
      <trkpt lat="44.82287" lon="5.36906">
        <ele>1518.06</ele>
        <time>2021-12-19T10:03:52Z</time>
      </trkpt>
      <trkpt lat="44.82287" lon="5.36906">
        <ele>1518.06</ele>
        <time>2021-12-19T10:04:12Z</time>
      </trkpt>
      <trkpt lat="44.82289" lon="5.36905">
        <ele>1517.58</ele>
        <time>2021-12-19T10:04:31Z</time>
      </trkpt>
      <trkpt lat="44.8229" lon="5.36904">
        <ele>1517.1</ele>
        <time>2021-12-19T10:04:35Z</time>
      </trkpt>
      <trkpt lat="44.82285" lon="5.36904">
        <ele>1518.54</ele>
        <time>2021-12-19T10:04:53Z</time>
      </trkpt>
      <trkpt lat="44.82286" lon="5.36904">
        <ele>1518.54</ele>
        <time>2021-12-19T10:05:21Z</time>
      </trkpt>
      <trkpt lat="44.82287" lon="5.36908">
        <ele>1518.54</ele>
        <time>2021-12-19T10:05:34Z</time>
      </trkpt>
      <trkpt lat="44.82287" lon="5.36908">
        <ele>1519.02</ele>
        <time>2021-12-19T10:06:06Z</time>
      </trkpt>
      <trkpt lat="44.82288" lon="5.36908">
        <ele>1518.54</ele>
        <time>2021-12-19T10:06:16Z</time>
      </trkpt>
      <trkpt lat="44.82294" lon="5.36908">
        <ele>1517.58</ele>
        <time>2021-12-19T10:06:23Z</time>
      </trkpt>
      <trkpt lat="44.82315" lon="5.36914">
        <ele>1515.18</ele>
        <time>2021-12-19T10:06:41Z</time>
      </trkpt>
      <trkpt lat="44.82321" lon="5.36917">
        <ele>1514.21</ele>
        <time>2021-12-19T10:06:49Z</time>
      </trkpt>
      <trkpt lat="44.82328" lon="5.36923">
        <ele>1514.21</ele>
        <time>2021-12-19T10:07:03Z</time>
      </trkpt>
      <trkpt lat="44.82328" lon="5.36923">
        <ele>1513.73</ele>
        <time>2021-12-19T10:07:23Z</time>
      </trkpt>
      <trkpt lat="44.82328" lon="5.36923">
        <ele>1514.69</ele>
        <time>2021-12-19T10:07:43Z</time>
      </trkpt>
      <trkpt lat="44.82329" lon="5.36923">
        <ele>1515.18</ele>
        <time>2021-12-19T10:08:00Z</time>
      </trkpt>
      <trkpt lat="44.82329" lon="5.36923">
        <ele>1514.69</ele>
        <time>2021-12-19T10:08:01Z</time>
      </trkpt>
      <trkpt lat="44.82339" lon="5.36921">
        <ele>1511.33</ele>
        <time>2021-12-19T10:08:11Z</time>
      </trkpt>
      <trkpt lat="44.82341" lon="5.3692">
        <ele>1510.37</ele>
        <time>2021-12-19T10:08:14Z</time>
      </trkpt>
      <trkpt lat="44.82357" lon="5.36913">
        <ele>1506.52</ele>
        <time>2021-12-19T10:08:28Z</time>
      </trkpt>
      <trkpt lat="44.82359" lon="5.36913">
        <ele>1506.52</ele>
        <time>2021-12-19T10:08:30Z</time>
      </trkpt>
      <trkpt lat="44.82369" lon="5.36906">
        <ele>1501.72</ele>
        <time>2021-12-19T10:08:41Z</time>
      </trkpt>
      <trkpt lat="44.8237" lon="5.36906">
        <ele>1501.72</ele>
        <time>2021-12-19T10:08:42Z</time>
      </trkpt>
      <trkpt lat="44.82383" lon="5.36905">
        <ele>1498.83</ele>
        <time>2021-12-19T10:08:54Z</time>
      </trkpt>
      <trkpt lat="44.82394" lon="5.36906">
        <ele>1494.99</ele>
        <time>2021-12-19T10:09:04Z</time>
      </trkpt>
      <trkpt lat="44.82396" lon="5.36909">
        <ele>1495.47</ele>
        <time>2021-12-19T10:09:08Z</time>
      </trkpt>
      <trkpt lat="44.82406" lon="5.36923">
        <ele>1495.95</ele>
        <time>2021-12-19T10:09:22Z</time>
      </trkpt>
      <trkpt lat="44.82407" lon="5.36927">
        <ele>1499.31</ele>
        <time>2021-12-19T10:09:27Z</time>
      </trkpt>
      <trkpt lat="44.82407" lon="5.36927">
        <ele>1495.95</ele>
        <time>2021-12-19T10:09:28Z</time>
      </trkpt>
      <trkpt lat="44.82407" lon="5.36927">
        <ele>1498.83</ele>
        <time>2021-12-19T10:09:29Z</time>
      </trkpt>
      <trkpt lat="44.8241" lon="5.36935">
        <ele>1499.79</ele>
        <time>2021-12-19T10:09:42Z</time>
      </trkpt>
      <trkpt lat="44.82412" lon="5.36937">
        <ele>1499.79</ele>
        <time>2021-12-19T10:09:44Z</time>
      </trkpt>
      <trkpt lat="44.82414" lon="5.36946">
        <ele>1498.83</ele>
        <time>2021-12-19T10:09:56Z</time>
      </trkpt>
      <trkpt lat="44.82416" lon="5.36952">
        <ele>1500.76</ele>
        <time>2021-12-19T10:10:10Z</time>
      </trkpt>
      <trkpt lat="44.82419" lon="5.36956">
        <ele>1501.72</ele>
        <time>2021-12-19T10:10:22Z</time>
      </trkpt>
      <trkpt lat="44.82421" lon="5.36957">
        <ele>1502.68</ele>
        <time>2021-12-19T10:10:34Z</time>
      </trkpt>
      <trkpt lat="44.82424" lon="5.36964">
        <ele>1505.56</ele>
        <time>2021-12-19T10:10:45Z</time>
      </trkpt>
      <trkpt lat="44.82425" lon="5.36968">
        <ele>1506.52</ele>
        <time>2021-12-19T10:10:51Z</time>
      </trkpt>
      <trkpt lat="44.82425" lon="5.36972">
        <ele>1506.52</ele>
        <time>2021-12-19T10:10:53Z</time>
      </trkpt>
      <trkpt lat="44.82428" lon="5.36977">
        <ele>1507.48</ele>
        <time>2021-12-19T10:10:56Z</time>
      </trkpt>
      <trkpt lat="44.8243" lon="5.36995">
        <ele>1508.45</ele>
        <time>2021-12-19T10:11:08Z</time>
      </trkpt>
      <trkpt lat="44.82433" lon="5.37005">
        <ele>1510.37</ele>
        <time>2021-12-19T10:11:19Z</time>
      </trkpt>
      <trkpt lat="44.82438" lon="5.37018">
        <ele>1512.29</ele>
        <time>2021-12-19T10:11:32Z</time>
      </trkpt>
      <trkpt lat="44.82439" lon="5.37021">
        <ele>1512.29</ele>
        <time>2021-12-19T10:11:36Z</time>
      </trkpt>
      <trkpt lat="44.82443" lon="5.37026">
        <ele>1515.18</ele>
        <time>2021-12-19T10:11:44Z</time>
      </trkpt>
      <trkpt lat="44.82445" lon="5.37031">
        <ele>1514.21</ele>
        <time>2021-12-19T10:11:49Z</time>
      </trkpt>
      <trkpt lat="44.82448" lon="5.37038">
        <ele>1517.58</ele>
        <time>2021-12-19T10:11:55Z</time>
      </trkpt>
      <trkpt lat="44.82452" lon="5.37047">
        <ele>1516.14</ele>
        <time>2021-12-19T10:12:09Z</time>
      </trkpt>
      <trkpt lat="44.82454" lon="5.37051">
        <ele>1515.66</ele>
        <time>2021-12-19T10:12:12Z</time>
      </trkpt>
      <trkpt lat="44.82465" lon="5.37061">
        <ele>1517.58</ele>
        <time>2021-12-19T10:12:27Z</time>
      </trkpt>
      <trkpt lat="44.82467" lon="5.37062">
        <ele>1517.1</ele>
        <time>2021-12-19T10:12:28Z</time>
      </trkpt>
      <trkpt lat="44.82472" lon="5.37073">
        <ele>1518.54</ele>
        <time>2021-12-19T10:12:40Z</time>
      </trkpt>
      <trkpt lat="44.82477" lon="5.37083">
        <ele>1519.98</ele>
        <time>2021-12-19T10:12:58Z</time>
      </trkpt>
      <trkpt lat="44.82487" lon="5.37092">
        <ele>1520.46</ele>
        <time>2021-12-19T10:13:12Z</time>
      </trkpt>
      <trkpt lat="44.8249" lon="5.37094">
        <ele>1520.46</ele>
        <time>2021-12-19T10:13:25Z</time>
      </trkpt>
      <trkpt lat="44.82501" lon="5.37104">
        <ele>1521.42</ele>
        <time>2021-12-19T10:13:39Z</time>
      </trkpt>
      <trkpt lat="44.82504" lon="5.37111">
        <ele>1521.9</ele>
        <time>2021-12-19T10:13:51Z</time>
      </trkpt>
      <trkpt lat="44.82512" lon="5.37114">
        <ele>1521.9</ele>
        <time>2021-12-19T10:14:05Z</time>
      </trkpt>
      <trkpt lat="44.82522" lon="5.37119">
        <ele>1521.42</ele>
        <time>2021-12-19T10:14:18Z</time>
      </trkpt>
      <trkpt lat="44.8253" lon="5.37122">
        <ele>1520.94</ele>
        <time>2021-12-19T10:14:33Z</time>
      </trkpt>
      <trkpt lat="44.82534" lon="5.37123">
        <ele>1519.98</ele>
        <time>2021-12-19T10:14:45Z</time>
      </trkpt>
      <trkpt lat="44.82542" lon="5.37128">
        <ele>1520.94</ele>
        <time>2021-12-19T10:14:54Z</time>
      </trkpt>
      <trkpt lat="44.82546" lon="5.37134">
        <ele>1521.42</ele>
        <time>2021-12-19T10:15:00Z</time>
      </trkpt>
      <trkpt lat="44.82549" lon="5.37138">
        <ele>1521.9</ele>
        <time>2021-12-19T10:15:04Z</time>
      </trkpt>
      <trkpt lat="44.82551" lon="5.37141">
        <ele>1521.42</ele>
        <time>2021-12-19T10:15:07Z</time>
      </trkpt>
      <trkpt lat="44.82562" lon="5.3715">
        <ele>1521.42</ele>
        <time>2021-12-19T10:15:21Z</time>
      </trkpt>
      <trkpt lat="44.82572" lon="5.3716">
        <ele>1521.9</ele>
        <time>2021-12-19T10:15:34Z</time>
      </trkpt>
      <trkpt lat="44.82581" lon="5.37169">
        <ele>1522.87</ele>
        <time>2021-12-19T10:15:45Z</time>
      </trkpt>
      <trkpt lat="44.8259" lon="5.37176">
        <ele>1522.39</ele>
        <time>2021-12-19T10:15:54Z</time>
      </trkpt>
      <trkpt lat="44.82597" lon="5.37187">
        <ele>1523.35</ele>
        <time>2021-12-19T10:16:03Z</time>
      </trkpt>
      <trkpt lat="44.826" lon="5.3719">
        <ele>1524.31</ele>
        <time>2021-12-19T10:16:07Z</time>
      </trkpt>
      <trkpt lat="44.82607" lon="5.37196">
        <ele>1524.31</ele>
        <time>2021-12-19T10:16:16Z</time>
      </trkpt>
      <trkpt lat="44.8261" lon="5.37202">
        <ele>1525.27</ele>
        <time>2021-12-19T10:16:23Z</time>
      </trkpt>
      <trkpt lat="44.82619" lon="5.37211">
        <ele>1527.19</ele>
        <time>2021-12-19T10:16:36Z</time>
      </trkpt>
      <trkpt lat="44.8262" lon="5.37213">
        <ele>1527.67</ele>
        <time>2021-12-19T10:16:38Z</time>
      </trkpt>
      <trkpt lat="44.82627" lon="5.37221">
        <ele>1529.11</ele>
        <time>2021-12-19T10:16:50Z</time>
      </trkpt>
      <trkpt lat="44.82628" lon="5.37222">
        <ele>1528.63</ele>
        <time>2021-12-19T10:16:51Z</time>
      </trkpt>
      <trkpt lat="44.82629" lon="5.37225">
        <ele>1529.59</ele>
        <time>2021-12-19T10:16:54Z</time>
      </trkpt>
      <trkpt lat="44.82635" lon="5.37235">
        <ele>1531.04</ele>
        <time>2021-12-19T10:17:07Z</time>
      </trkpt>
      <trkpt lat="44.8264" lon="5.37242">
        <ele>1532.96</ele>
        <time>2021-12-19T10:17:18Z</time>
      </trkpt>
      <trkpt lat="44.82645" lon="5.37251">
        <ele>1534.4</ele>
        <time>2021-12-19T10:17:29Z</time>
      </trkpt>
      <trkpt lat="44.82646" lon="5.37253">
        <ele>1535.36</ele>
        <time>2021-12-19T10:17:31Z</time>
      </trkpt>
      <trkpt lat="44.82654" lon="5.37261">
        <ele>1536.32</ele>
        <time>2021-12-19T10:17:44Z</time>
      </trkpt>
      <trkpt lat="44.82661" lon="5.3727">
        <ele>1537.29</ele>
        <time>2021-12-19T10:17:56Z</time>
      </trkpt>
      <trkpt lat="44.82663" lon="5.37275">
        <ele>1539.21</ele>
        <time>2021-12-19T10:18:12Z</time>
      </trkpt>
      <trkpt lat="44.8267" lon="5.37282">
        <ele>1540.17</ele>
        <time>2021-12-19T10:18:20Z</time>
      </trkpt>
      <trkpt lat="44.82678" lon="5.37293">
        <ele>1542.57</ele>
        <time>2021-12-19T10:18:34Z</time>
      </trkpt>
      <trkpt lat="44.82685" lon="5.37305">
        <ele>1544.01</ele>
        <time>2021-12-19T10:18:46Z</time>
      </trkpt>
      <trkpt lat="44.8269" lon="5.37312">
        <ele>1545.94</ele>
        <time>2021-12-19T10:18:58Z</time>
      </trkpt>
      <trkpt lat="44.82691" lon="5.37314">
        <ele>1546.42</ele>
        <time>2021-12-19T10:19:02Z</time>
      </trkpt>
      <trkpt lat="44.82699" lon="5.37321">
        <ele>1548.34</ele>
        <time>2021-12-19T10:19:15Z</time>
      </trkpt>
      <trkpt lat="44.827" lon="5.37327">
        <ele>1550.74</ele>
        <time>2021-12-19T10:19:27Z</time>
      </trkpt>
      <trkpt lat="44.82701" lon="5.3733">
        <ele>1551.71</ele>
        <time>2021-12-19T10:19:31Z</time>
      </trkpt>
      <trkpt lat="44.82706" lon="5.3734">
        <ele>1553.63</ele>
        <time>2021-12-19T10:19:44Z</time>
      </trkpt>
      <trkpt lat="44.8271" lon="5.37342">
        <ele>1552.67</ele>
        <time>2021-12-19T10:19:50Z</time>
      </trkpt>
      <trkpt lat="44.82713" lon="5.37343">
        <ele>1552.19</ele>
        <time>2021-12-19T10:19:53Z</time>
      </trkpt>
      <trkpt lat="44.82725" lon="5.37344">
        <ele>1550.26</ele>
        <time>2021-12-19T10:20:08Z</time>
      </trkpt>
      <trkpt lat="44.82733" lon="5.37349">
        <ele>1549.3</ele>
        <time>2021-12-19T10:20:24Z</time>
      </trkpt>
      <trkpt lat="44.82742" lon="5.37353">
        <ele>1549.3</ele>
        <time>2021-12-19T10:20:39Z</time>
      </trkpt>
      <trkpt lat="44.82743" lon="5.37354">
        <ele>1548.82</ele>
        <time>2021-12-19T10:20:55Z</time>
      </trkpt>
      <trkpt lat="44.82743" lon="5.37354">
        <ele>1549.78</ele>
        <time>2021-12-19T10:21:00Z</time>
      </trkpt>
      <trkpt lat="44.82743" lon="5.37354">
        <ele>1549.3</ele>
        <time>2021-12-19T10:21:02Z</time>
      </trkpt>
      <trkpt lat="44.82744" lon="5.37356">
        <ele>1549.3</ele>
        <time>2021-12-19T10:21:23Z</time>
      </trkpt>
      <trkpt lat="44.82752" lon="5.37362">
        <ele>1548.82</ele>
        <time>2021-12-19T10:21:39Z</time>
      </trkpt>
      <trkpt lat="44.82757" lon="5.37366">
        <ele>1547.38</ele>
        <time>2021-12-19T10:21:52Z</time>
      </trkpt>
      <trkpt lat="44.82775" lon="5.37372">
        <ele>1546.9</ele>
        <time>2021-12-19T10:22:06Z</time>
      </trkpt>
      <trkpt lat="44.82779" lon="5.37375">
        <ele>1545.94</ele>
        <time>2021-12-19T10:22:21Z</time>
      </trkpt>
      <trkpt lat="44.82787" lon="5.37379">
        <ele>1544.5</ele>
        <time>2021-12-19T10:22:36Z</time>
      </trkpt>
      <trkpt lat="44.82793" lon="5.37382">
        <ele>1544.01</ele>
        <time>2021-12-19T10:22:51Z</time>
      </trkpt>
      <trkpt lat="44.82808" lon="5.37389">
        <ele>1543.05</ele>
        <time>2021-12-19T10:23:07Z</time>
      </trkpt>
      <trkpt lat="44.82834" lon="5.37402">
        <ele>1543.53</ele>
        <time>2021-12-19T10:23:21Z</time>
      </trkpt>
      <trkpt lat="44.82844" lon="5.37411">
        <ele>1544.5</ele>
        <time>2021-12-19T10:23:33Z</time>
      </trkpt>
      <trkpt lat="44.82847" lon="5.37418">
        <ele>1545.94</ele>
        <time>2021-12-19T10:23:41Z</time>
      </trkpt>
      <trkpt lat="44.8286" lon="5.37431">
        <ele>1546.42</ele>
        <time>2021-12-19T10:23:56Z</time>
      </trkpt>
      <trkpt lat="44.82874" lon="5.37436">
        <ele>1545.46</ele>
        <time>2021-12-19T10:24:12Z</time>
      </trkpt>
      <trkpt lat="44.82881" lon="5.37439">
        <ele>1544.98</ele>
        <time>2021-12-19T10:24:29Z</time>
      </trkpt>
      <trkpt lat="44.82887" lon="5.37443">
        <ele>1544.01</ele>
        <time>2021-12-19T10:24:45Z</time>
      </trkpt>
      <trkpt lat="44.82894" lon="5.37449">
        <ele>1544.5</ele>
        <time>2021-12-19T10:24:52Z</time>
      </trkpt>
      <trkpt lat="44.82908" lon="5.37461">
        <ele>1545.46</ele>
        <time>2021-12-19T10:25:04Z</time>
      </trkpt>
      <trkpt lat="44.82917" lon="5.37471">
        <ele>1547.38</ele>
        <time>2021-12-19T10:25:16Z</time>
      </trkpt>
      <trkpt lat="44.82919" lon="5.37473">
        <ele>1545.46</ele>
        <time>2021-12-19T10:25:19Z</time>
      </trkpt>
      <trkpt lat="44.82928" lon="5.37479">
        <ele>1550.26</ele>
        <time>2021-12-19T10:25:29Z</time>
      </trkpt>
      <trkpt lat="44.82928" lon="5.3748">
        <ele>1542.57</ele>
        <time>2021-12-19T10:25:30Z</time>
      </trkpt>
      <trkpt lat="44.82929" lon="5.37481">
        <ele>1550.26</ele>
        <time>2021-12-19T10:25:31Z</time>
      </trkpt>
      <trkpt lat="44.82929" lon="5.37481">
        <ele>1546.42</ele>
        <time>2021-12-19T10:25:32Z</time>
      </trkpt>
      <trkpt lat="44.82939" lon="5.37491">
        <ele>1546.42</ele>
        <time>2021-12-19T10:25:45Z</time>
      </trkpt>
      <trkpt lat="44.8294" lon="5.37492">
        <ele>1546.42</ele>
        <time>2021-12-19T10:25:46Z</time>
      </trkpt>
      <trkpt lat="44.82945" lon="5.37501">
        <ele>1547.86</ele>
        <time>2021-12-19T10:25:59Z</time>
      </trkpt>
      <trkpt lat="44.8295" lon="5.37509">
        <ele>1548.82</ele>
        <time>2021-12-19T10:26:11Z</time>
      </trkpt>
      <trkpt lat="44.82959" lon="5.37518">
        <ele>1549.3</ele>
        <time>2021-12-19T10:26:24Z</time>
      </trkpt>
      <trkpt lat="44.82967" lon="5.37529">
        <ele>1550.26</ele>
        <time>2021-12-19T10:26:34Z</time>
      </trkpt>
      <trkpt lat="44.82972" lon="5.37533">
        <ele>1550.74</ele>
        <time>2021-12-19T10:26:39Z</time>
      </trkpt>
      <trkpt lat="44.82974" lon="5.37535">
        <ele>1548.82</ele>
        <time>2021-12-19T10:26:42Z</time>
      </trkpt>
      <trkpt lat="44.82979" lon="5.37547">
        <ele>1552.67</ele>
        <time>2021-12-19T10:26:55Z</time>
      </trkpt>
      <trkpt lat="44.82988" lon="5.37563">
        <ele>1553.63</ele>
        <time>2021-12-19T10:27:09Z</time>
      </trkpt>
      <trkpt lat="44.82995" lon="5.37579">
        <ele>1554.11</ele>
        <time>2021-12-19T10:27:20Z</time>
      </trkpt>
      <trkpt lat="44.82996" lon="5.37583">
        <ele>1552.67</ele>
        <time>2021-12-19T10:27:23Z</time>
      </trkpt>
      <trkpt lat="44.82996" lon="5.37585">
        <ele>1554.11</ele>
        <time>2021-12-19T10:27:25Z</time>
      </trkpt>
      <trkpt lat="44.83005" lon="5.37603">
        <ele>1554.11</ele>
        <time>2021-12-19T10:27:38Z</time>
      </trkpt>
      <trkpt lat="44.83012" lon="5.37612">
        <ele>1553.15</ele>
        <time>2021-12-19T10:27:46Z</time>
      </trkpt>
      <trkpt lat="44.83012" lon="5.37618">
        <ele>1552.67</ele>
        <time>2021-12-19T10:28:01Z</time>
      </trkpt>
      <trkpt lat="44.83012" lon="5.37618">
        <ele>1553.15</ele>
        <time>2021-12-19T10:28:18Z</time>
      </trkpt>
      <trkpt lat="44.83012" lon="5.37618">
        <ele>1553.15</ele>
        <time>2021-12-19T10:28:39Z</time>
      </trkpt>
      <trkpt lat="44.83011" lon="5.37617">
        <ele>1553.15</ele>
        <time>2021-12-19T10:29:03Z</time>
      </trkpt>
      <trkpt lat="44.83011" lon="5.37617">
        <ele>1554.59</ele>
        <time>2021-12-19T10:29:20Z</time>
      </trkpt>
      <trkpt lat="44.83011" lon="5.37617">
        <ele>1553.15</ele>
        <time>2021-12-19T10:29:22Z</time>
      </trkpt>
      <trkpt lat="44.8302" lon="5.37619">
        <ele>1551.71</ele>
        <time>2021-12-19T10:29:40Z</time>
      </trkpt>
      <trkpt lat="44.83021" lon="5.37621">
        <ele>1551.71</ele>
        <time>2021-12-19T10:29:42Z</time>
      </trkpt>
      <trkpt lat="44.83027" lon="5.37626">
        <ele>1551.22</ele>
        <time>2021-12-19T10:29:48Z</time>
      </trkpt>
      <trkpt lat="44.83045" lon="5.37638">
        <ele>1548.34</ele>
        <time>2021-12-19T10:30:05Z</time>
      </trkpt>
      <trkpt lat="44.8306" lon="5.37644">
        <ele>1546.9</ele>
        <time>2021-12-19T10:30:19Z</time>
      </trkpt>
      <trkpt lat="44.83077" lon="5.37652">
        <ele>1544.01</ele>
        <time>2021-12-19T10:30:34Z</time>
      </trkpt>
      <trkpt lat="44.83093" lon="5.37658">
        <ele>1541.61</ele>
        <time>2021-12-19T10:30:48Z</time>
      </trkpt>
      <trkpt lat="44.83106" lon="5.37671">
        <ele>1539.21</ele>
        <time>2021-12-19T10:31:01Z</time>
      </trkpt>
      <trkpt lat="44.83117" lon="5.37677">
        <ele>1539.21</ele>
        <time>2021-12-19T10:31:12Z</time>
      </trkpt>
      <trkpt lat="44.83118" lon="5.37677">
        <ele>1538.73</ele>
        <time>2021-12-19T10:31:14Z</time>
      </trkpt>
      <trkpt lat="44.83134" lon="5.37682">
        <ele>1537.77</ele>
        <time>2021-12-19T10:31:28Z</time>
      </trkpt>
      <trkpt lat="44.83155" lon="5.37689">
        <ele>1536.32</ele>
        <time>2021-12-19T10:31:45Z</time>
      </trkpt>
      <trkpt lat="44.83172" lon="5.37692">
        <ele>1535.84</ele>
        <time>2021-12-19T10:31:59Z</time>
      </trkpt>
      <trkpt lat="44.8319" lon="5.37697">
        <ele>1536.8</ele>
        <time>2021-12-19T10:32:13Z</time>
      </trkpt>
      <trkpt lat="44.8321" lon="5.37703">
        <ele>1535.84</ele>
        <time>2021-12-19T10:32:29Z</time>
      </trkpt>
      <trkpt lat="44.83229" lon="5.37709">
        <ele>1536.32</ele>
        <time>2021-12-19T10:32:43Z</time>
      </trkpt>
      <trkpt lat="44.83244" lon="5.37714">
        <ele>1535.84</ele>
        <time>2021-12-19T10:32:56Z</time>
      </trkpt>
      <trkpt lat="44.83263" lon="5.37719">
        <ele>1535.84</ele>
        <time>2021-12-19T10:33:10Z</time>
      </trkpt>
      <trkpt lat="44.8328" lon="5.37723">
        <ele>1535.84</ele>
        <time>2021-12-19T10:33:23Z</time>
      </trkpt>
      <trkpt lat="44.833" lon="5.37726">
        <ele>1536.32</ele>
        <time>2021-12-19T10:33:38Z</time>
      </trkpt>
      <trkpt lat="44.83317" lon="5.37725">
        <ele>1535.36</ele>
        <time>2021-12-19T10:33:52Z</time>
      </trkpt>
      <trkpt lat="44.83329" lon="5.37727">
        <ele>1533.44</ele>
        <time>2021-12-19T10:34:11Z</time>
      </trkpt>
      <trkpt lat="44.83329" lon="5.37727">
        <ele>1533.44</ele>
        <time>2021-12-19T10:34:37Z</time>
      </trkpt>
      <trkpt lat="44.83339" lon="5.3773">
        <ele>1533.44</ele>
        <time>2021-12-19T10:34:55Z</time>
      </trkpt>
      <trkpt lat="44.83356" lon="5.37737">
        <ele>1532.48</ele>
        <time>2021-12-19T10:35:10Z</time>
      </trkpt>
      <trkpt lat="44.83371" lon="5.37743">
        <ele>1531.04</ele>
        <time>2021-12-19T10:35:24Z</time>
      </trkpt>
      <trkpt lat="44.83374" lon="5.37744">
        <ele>1531.04</ele>
        <time>2021-12-19T10:35:26Z</time>
      </trkpt>
      <trkpt lat="44.83393" lon="5.37745">
        <ele>1530.56</ele>
        <time>2021-12-19T10:35:42Z</time>
      </trkpt>
      <trkpt lat="44.83396" lon="5.37746">
        <ele>1530.08</ele>
        <time>2021-12-19T10:35:45Z</time>
      </trkpt>
      <trkpt lat="44.83399" lon="5.37746">
        <ele>1530.08</ele>
        <time>2021-12-19T10:35:48Z</time>
      </trkpt>
      <trkpt lat="44.8342" lon="5.3775">
        <ele>1529.11</ele>
        <time>2021-12-19T10:36:04Z</time>
      </trkpt>
      <trkpt lat="44.83433" lon="5.37754">
        <ele>1529.59</ele>
        <time>2021-12-19T10:36:16Z</time>
      </trkpt>
      <trkpt lat="44.83449" lon="5.3776">
        <ele>1528.63</ele>
        <time>2021-12-19T10:36:30Z</time>
      </trkpt>
      <trkpt lat="44.83463" lon="5.37766">
        <ele>1529.11</ele>
        <time>2021-12-19T10:36:44Z</time>
      </trkpt>
      <trkpt lat="44.83476" lon="5.37773">
        <ele>1529.59</ele>
        <time>2021-12-19T10:36:58Z</time>
      </trkpt>
      <trkpt lat="44.8349" lon="5.37779">
        <ele>1528.63</ele>
        <time>2021-12-19T10:37:12Z</time>
      </trkpt>
      <trkpt lat="44.83496" lon="5.3778">
        <ele>1528.63</ele>
        <time>2021-12-19T10:37:17Z</time>
      </trkpt>
      <trkpt lat="44.83513" lon="5.37786">
        <ele>1528.63</ele>
        <time>2021-12-19T10:37:32Z</time>
      </trkpt>
      <trkpt lat="44.8352" lon="5.37787">
        <ele>1529.59</ele>
        <time>2021-12-19T10:37:38Z</time>
      </trkpt>
      <trkpt lat="44.83528" lon="5.37787">
        <ele>1529.59</ele>
        <time>2021-12-19T10:37:47Z</time>
      </trkpt>
      <trkpt lat="44.8353" lon="5.37788">
        <ele>1529.59</ele>
        <time>2021-12-19T10:37:49Z</time>
      </trkpt>
      <trkpt lat="44.83544" lon="5.37791">
        <ele>1530.08</ele>
        <time>2021-12-19T10:38:03Z</time>
      </trkpt>
      <trkpt lat="44.83558" lon="5.37795">
        <ele>1530.08</ele>
        <time>2021-12-19T10:38:16Z</time>
      </trkpt>
      <trkpt lat="44.83561" lon="5.37796">
        <ele>1530.08</ele>
        <time>2021-12-19T10:38:20Z</time>
      </trkpt>
      <trkpt lat="44.83566" lon="5.37798">
        <ele>1529.59</ele>
        <time>2021-12-19T10:38:31Z</time>
      </trkpt>
      <trkpt lat="44.83573" lon="5.37801">
        <ele>1530.08</ele>
        <time>2021-12-19T10:38:40Z</time>
      </trkpt>
      <trkpt lat="44.83588" lon="5.37808">
        <ele>1530.08</ele>
        <time>2021-12-19T10:38:54Z</time>
      </trkpt>
      <trkpt lat="44.83601" lon="5.3781">
        <ele>1530.08</ele>
        <time>2021-12-19T10:39:05Z</time>
      </trkpt>
      <trkpt lat="44.83604" lon="5.37811">
        <ele>1528.63</ele>
        <time>2021-12-19T10:39:10Z</time>
      </trkpt>
      <trkpt lat="44.8362" lon="5.37818">
        <ele>1529.59</ele>
        <time>2021-12-19T10:39:24Z</time>
      </trkpt>
      <trkpt lat="44.83637" lon="5.37828">
        <ele>1529.11</ele>
        <time>2021-12-19T10:39:38Z</time>
      </trkpt>
      <trkpt lat="44.83656" lon="5.37836">
        <ele>1528.63</ele>
        <time>2021-12-19T10:39:54Z</time>
      </trkpt>
      <trkpt lat="44.83672" lon="5.37846">
        <ele>1527.67</ele>
        <time>2021-12-19T10:40:07Z</time>
      </trkpt>
      <trkpt lat="44.83673" lon="5.37846">
        <ele>1527.67</ele>
        <time>2021-12-19T10:40:08Z</time>
      </trkpt>
      <trkpt lat="44.83687" lon="5.37852">
        <ele>1527.19</ele>
        <time>2021-12-19T10:40:19Z</time>
      </trkpt>
      <trkpt lat="44.83695" lon="5.37854">
        <ele>1527.19</ele>
        <time>2021-12-19T10:40:25Z</time>
      </trkpt>
      <trkpt lat="44.83701" lon="5.3786">
        <ele>1527.67</ele>
        <time>2021-12-19T10:40:32Z</time>
      </trkpt>
      <trkpt lat="44.83706" lon="5.37861">
        <ele>1523.35</ele>
        <time>2021-12-19T10:40:36Z</time>
      </trkpt>
      <trkpt lat="44.83707" lon="5.37861">
        <ele>1528.15</ele>
        <time>2021-12-19T10:40:37Z</time>
      </trkpt>
      <trkpt lat="44.83714" lon="5.37862">
        <ele>1525.27</ele>
        <time>2021-12-19T10:40:42Z</time>
      </trkpt>
      <trkpt lat="44.83718" lon="5.37863">
        <ele>1525.75</ele>
        <time>2021-12-19T10:40:49Z</time>
      </trkpt>
      <trkpt lat="44.83736" lon="5.37876">
        <ele>1525.75</ele>
        <time>2021-12-19T10:41:04Z</time>
      </trkpt>
      <trkpt lat="44.83752" lon="5.37884">
        <ele>1524.79</ele>
        <time>2021-12-19T10:41:17Z</time>
      </trkpt>
      <trkpt lat="44.83765" lon="5.37892">
        <ele>1523.83</ele>
        <time>2021-12-19T10:41:29Z</time>
      </trkpt>
      <trkpt lat="44.83779" lon="5.37907">
        <ele>1523.35</ele>
        <time>2021-12-19T10:41:44Z</time>
      </trkpt>
      <trkpt lat="44.83791" lon="5.37922">
        <ele>1522.39</ele>
        <time>2021-12-19T10:41:56Z</time>
      </trkpt>
      <trkpt lat="44.83794" lon="5.37926">
        <ele>1522.39</ele>
        <time>2021-12-19T10:42:00Z</time>
      </trkpt>
      <trkpt lat="44.83796" lon="5.37927">
        <ele>1521.9</ele>
        <time>2021-12-19T10:42:02Z</time>
      </trkpt>
      <trkpt lat="44.83808" lon="5.37944">
        <ele>1519.5</ele>
        <time>2021-12-19T10:42:15Z</time>
      </trkpt>
      <trkpt lat="44.83815" lon="5.37962">
        <ele>1517.58</ele>
        <time>2021-12-19T10:42:30Z</time>
      </trkpt>
      <trkpt lat="44.83825" lon="5.37981">
        <ele>1515.66</ele>
        <time>2021-12-19T10:42:44Z</time>
      </trkpt>
      <trkpt lat="44.83829" lon="5.37985">
        <ele>1515.66</ele>
        <time>2021-12-19T10:42:48Z</time>
      </trkpt>
      <trkpt lat="44.83835" lon="5.37999">
        <ele>1514.21</ele>
        <time>2021-12-19T10:42:58Z</time>
      </trkpt>
      <trkpt lat="44.83839" lon="5.38008">
        <ele>1513.73</ele>
        <time>2021-12-19T10:43:04Z</time>
      </trkpt>
      <trkpt lat="44.83846" lon="5.38027">
        <ele>1511.81</ele>
        <time>2021-12-19T10:43:16Z</time>
      </trkpt>
      <trkpt lat="44.83846" lon="5.38028">
        <ele>1510.85</ele>
        <time>2021-12-19T10:43:19Z</time>
      </trkpt>
      <trkpt lat="44.83848" lon="5.38033">
        <ele>1510.85</ele>
        <time>2021-12-19T10:43:23Z</time>
      </trkpt>
      <trkpt lat="44.8385" lon="5.38037">
        <ele>1509.41</ele>
        <time>2021-12-19T10:43:26Z</time>
      </trkpt>
      <trkpt lat="44.83851" lon="5.38047">
        <ele>1508.93</ele>
        <time>2021-12-19T10:43:32Z</time>
      </trkpt>
      <trkpt lat="44.83856" lon="5.38058">
        <ele>1507.97</ele>
        <time>2021-12-19T10:43:40Z</time>
      </trkpt>
      <trkpt lat="44.83858" lon="5.38064">
        <ele>1507</ele>
        <time>2021-12-19T10:43:45Z</time>
      </trkpt>
      <trkpt lat="44.83868" lon="5.38085">
        <ele>1506.04</ele>
        <time>2021-12-19T10:43:59Z</time>
      </trkpt>
      <trkpt lat="44.83876" lon="5.38105">
        <ele>1505.08</ele>
        <time>2021-12-19T10:44:12Z</time>
      </trkpt>
      <trkpt lat="44.83886" lon="5.38124">
        <ele>1503.16</ele>
        <time>2021-12-19T10:44:26Z</time>
      </trkpt>
      <trkpt lat="44.83896" lon="5.38139">
        <ele>1500.76</ele>
        <time>2021-12-19T10:44:39Z</time>
      </trkpt>
      <trkpt lat="44.83907" lon="5.38158">
        <ele>1497.39</ele>
        <time>2021-12-19T10:44:53Z</time>
      </trkpt>
      <trkpt lat="44.83912" lon="5.38165">
        <ele>1494.99</ele>
        <time>2021-12-19T10:45:02Z</time>
      </trkpt>
      <trkpt lat="44.83913" lon="5.3817">
        <ele>1494.99</ele>
        <time>2021-12-19T10:45:05Z</time>
      </trkpt>
      <trkpt lat="44.83924" lon="5.38188">
        <ele>1491.14</ele>
        <time>2021-12-19T10:45:19Z</time>
      </trkpt>
      <trkpt lat="44.83925" lon="5.38192">
        <ele>1490.18</ele>
        <time>2021-12-19T10:45:22Z</time>
      </trkpt>
      <trkpt lat="44.83928" lon="5.38201">
        <ele>1488.74</ele>
        <time>2021-12-19T10:45:32Z</time>
      </trkpt>
      <trkpt lat="44.83936" lon="5.38217">
        <ele>1485.37</ele>
        <time>2021-12-19T10:45:45Z</time>
      </trkpt>
      <trkpt lat="44.83944" lon="5.38229">
        <ele>1482.49</ele>
        <time>2021-12-19T10:45:55Z</time>
      </trkpt>
      <trkpt lat="44.83944" lon="5.38232">
        <ele>1482.49</ele>
        <time>2021-12-19T10:45:57Z</time>
      </trkpt>
      <trkpt lat="44.83947" lon="5.38239">
        <ele>1480.57</ele>
        <time>2021-12-19T10:46:03Z</time>
      </trkpt>
      <trkpt lat="44.83954" lon="5.38251">
        <ele>1477.2</ele>
        <time>2021-12-19T10:46:15Z</time>
      </trkpt>
      <trkpt lat="44.83955" lon="5.38255">
        <ele>1476.72</ele>
        <time>2021-12-19T10:46:18Z</time>
      </trkpt>
      <trkpt lat="44.83958" lon="5.38266">
        <ele>1474.8</ele>
        <time>2021-12-19T10:46:26Z</time>
      </trkpt>
      <trkpt lat="44.8396" lon="5.38283">
        <ele>1471.92</ele>
        <time>2021-12-19T10:46:37Z</time>
      </trkpt>
      <trkpt lat="44.83962" lon="5.38289">
        <ele>1470.47</ele>
        <time>2021-12-19T10:46:41Z</time>
      </trkpt>
      <trkpt lat="44.83964" lon="5.38297">
        <ele>1469.03</ele>
        <time>2021-12-19T10:46:46Z</time>
      </trkpt>
      <trkpt lat="44.83965" lon="5.38299">
        <ele>1468.55</ele>
        <time>2021-12-19T10:46:48Z</time>
      </trkpt>
      <trkpt lat="44.83972" lon="5.38318">
        <ele>1465.67</ele>
        <time>2021-12-19T10:47:02Z</time>
      </trkpt>
      <trkpt lat="44.8398" lon="5.38331">
        <ele>1463.26</ele>
        <time>2021-12-19T10:47:13Z</time>
      </trkpt>
      <trkpt lat="44.83981" lon="5.38332">
        <ele>1462.78</ele>
        <time>2021-12-19T10:47:14Z</time>
      </trkpt>
      <trkpt lat="44.83985" lon="5.38343">
        <ele>1461.82</ele>
        <time>2021-12-19T10:47:22Z</time>
      </trkpt>
      <trkpt lat="44.83989" lon="5.3835">
        <ele>1460.38</ele>
        <time>2021-12-19T10:47:28Z</time>
      </trkpt>
      <trkpt lat="44.83993" lon="5.38357">
        <ele>1458.94</ele>
        <time>2021-12-19T10:47:33Z</time>
      </trkpt>
      <trkpt lat="44.84" lon="5.38374">
        <ele>1457.02</ele>
        <time>2021-12-19T10:47:44Z</time>
      </trkpt>
      <trkpt lat="44.84004" lon="5.38382">
        <ele>1455.57</ele>
        <time>2021-12-19T10:47:52Z</time>
      </trkpt>
      <trkpt lat="44.84005" lon="5.38386">
        <ele>1455.57</ele>
        <time>2021-12-19T10:47:55Z</time>
      </trkpt>
      <trkpt lat="44.84011" lon="5.38404">
        <ele>1452.69</ele>
        <time>2021-12-19T10:48:09Z</time>
      </trkpt>
      <trkpt lat="44.84019" lon="5.38416">
        <ele>1451.25</ele>
        <time>2021-12-19T10:48:21Z</time>
      </trkpt>
      <trkpt lat="44.84028" lon="5.38428">
        <ele>1449.32</ele>
        <time>2021-12-19T10:48:32Z</time>
      </trkpt>
      <trkpt lat="44.84035" lon="5.38446">
        <ele>1446.44</ele>
        <time>2021-12-19T10:48:44Z</time>
      </trkpt>
      <trkpt lat="44.84038" lon="5.38454">
        <ele>1444.52</ele>
        <time>2021-12-19T10:48:50Z</time>
      </trkpt>
      <trkpt lat="44.84039" lon="5.38456">
        <ele>1444.52</ele>
        <time>2021-12-19T10:48:52Z</time>
      </trkpt>
      <trkpt lat="44.84048" lon="5.38476">
        <ele>1441.15</ele>
        <time>2021-12-19T10:49:08Z</time>
      </trkpt>
      <trkpt lat="44.84054" lon="5.38488">
        <ele>1440.19</ele>
        <time>2021-12-19T10:49:19Z</time>
      </trkpt>
      <trkpt lat="44.84057" lon="5.38493">
        <ele>1439.71</ele>
        <time>2021-12-19T10:49:23Z</time>
      </trkpt>
      <trkpt lat="44.84068" lon="5.38511">
        <ele>1437.79</ele>
        <time>2021-12-19T10:49:36Z</time>
      </trkpt>
      <trkpt lat="44.84081" lon="5.38527">
        <ele>1435.87</ele>
        <time>2021-12-19T10:49:49Z</time>
      </trkpt>
      <trkpt lat="44.84088" lon="5.3854">
        <ele>1435.39</ele>
        <time>2021-12-19T10:49:58Z</time>
      </trkpt>
      <trkpt lat="44.84091" lon="5.38546">
        <ele>1434.91</ele>
        <time>2021-12-19T10:50:02Z</time>
      </trkpt>
      <trkpt lat="44.84102" lon="5.38562">
        <ele>1433.46</ele>
        <time>2021-12-19T10:50:15Z</time>
      </trkpt>
      <trkpt lat="44.84112" lon="5.3858">
        <ele>1431.54</ele>
        <time>2021-12-19T10:50:28Z</time>
      </trkpt>
      <trkpt lat="44.8412" lon="5.38595">
        <ele>1429.62</ele>
        <time>2021-12-19T10:50:39Z</time>
      </trkpt>
      <trkpt lat="44.84125" lon="5.38602">
        <ele>1428.18</ele>
        <time>2021-12-19T10:50:55Z</time>
      </trkpt>
      <trkpt lat="44.84125" lon="5.38602">
        <ele>1427.7</ele>
        <time>2021-12-19T10:51:20Z</time>
      </trkpt>
      <trkpt lat="44.84125" lon="5.38603">
        <ele>1428.18</ele>
        <time>2021-12-19T10:51:32Z</time>
      </trkpt>
      <trkpt lat="44.84125" lon="5.38603">
        <ele>1427.7</ele>
        <time>2021-12-19T10:52:01Z</time>
      </trkpt>
      <trkpt lat="44.84125" lon="5.38603">
        <ele>1427.7</ele>
        <time>2021-12-19T10:52:31Z</time>
      </trkpt>
      <trkpt lat="44.84125" lon="5.38603">
        <ele>1427.7</ele>
        <time>2021-12-19T10:52:57Z</time>
      </trkpt>
      <trkpt lat="44.84125" lon="5.38603">
        <ele>1427.21</ele>
        <time>2021-12-19T10:53:12Z</time>
      </trkpt>
      <trkpt lat="44.84125" lon="5.38603">
        <ele>1427.7</ele>
        <time>2021-12-19T10:53:31Z</time>
      </trkpt>
      <trkpt lat="44.84125" lon="5.38603">
        <ele>1427.7</ele>
        <time>2021-12-19T10:54:02Z</time>
      </trkpt>
      <trkpt lat="44.84125" lon="5.38603">
        <ele>1427.21</ele>
        <time>2021-12-19T10:54:27Z</time>
      </trkpt>
      <trkpt lat="44.84124" lon="5.38603">
        <ele>1427.21</ele>
        <time>2021-12-19T10:54:49Z</time>
      </trkpt>
      <trkpt lat="44.84124" lon="5.38604">
        <ele>1427.7</ele>
        <time>2021-12-19T10:55:12Z</time>
      </trkpt>
      <trkpt lat="44.84137" lon="5.3862">
        <ele>1425.77</ele>
        <time>2021-12-19T10:55:24Z</time>
      </trkpt>
      <trkpt lat="44.84149" lon="5.38632">
        <ele>1422.89</ele>
        <time>2021-12-19T10:55:36Z</time>
      </trkpt>
      <trkpt lat="44.84161" lon="5.38649">
        <ele>1420.49</ele>
        <time>2021-12-19T10:55:48Z</time>
      </trkpt>
      <trkpt lat="44.84173" lon="5.38669">
        <ele>1419.52</ele>
        <time>2021-12-19T10:56:01Z</time>
      </trkpt>
      <trkpt lat="44.84173" lon="5.38672">
        <ele>1418.56</ele>
        <time>2021-12-19T10:56:04Z</time>
      </trkpt>
      <trkpt lat="44.84166" lon="5.38689">
        <ele>1415.2</ele>
        <time>2021-12-19T10:56:14Z</time>
      </trkpt>
      <trkpt lat="44.84165" lon="5.38691">
        <ele>1415.2</ele>
        <time>2021-12-19T10:56:16Z</time>
      </trkpt>
      <trkpt lat="44.84154" lon="5.38702">
        <ele>1411.35</ele>
        <time>2021-12-19T10:56:26Z</time>
      </trkpt>
      <trkpt lat="44.84148" lon="5.38704">
        <ele>1409.43</ele>
        <time>2021-12-19T10:56:31Z</time>
      </trkpt>
      <trkpt lat="44.84136" lon="5.3871">
        <ele>1406.07</ele>
        <time>2021-12-19T10:56:41Z</time>
      </trkpt>
      <trkpt lat="44.84127" lon="5.38714">
        <ele>1402.7</ele>
        <time>2021-12-19T10:56:49Z</time>
      </trkpt>
      <trkpt lat="44.84127" lon="5.38715">
        <ele>1402.22</ele>
        <time>2021-12-19T10:56:50Z</time>
      </trkpt>
      <trkpt lat="44.84123" lon="5.38717">
        <ele>1400.3</ele>
        <time>2021-12-19T10:56:55Z</time>
      </trkpt>
      <trkpt lat="44.84115" lon="5.38719">
        <ele>1397.89</ele>
        <time>2021-12-19T10:57:01Z</time>
      </trkpt>
      <trkpt lat="44.84113" lon="5.38721">
        <ele>1395.97</ele>
        <time>2021-12-19T10:57:03Z</time>
      </trkpt>
      <trkpt lat="44.84113" lon="5.38728">
        <ele>1394.53</ele>
        <time>2021-12-19T10:57:08Z</time>
      </trkpt>
      <trkpt lat="44.84102" lon="5.38738">
        <ele>1391.65</ele>
        <time>2021-12-19T10:57:18Z</time>
      </trkpt>
      <trkpt lat="44.8409" lon="5.38744">
        <ele>1388.76</ele>
        <time>2021-12-19T10:57:30Z</time>
      </trkpt>
      <trkpt lat="44.84085" lon="5.38746">
        <ele>1387.32</ele>
        <time>2021-12-19T10:57:43Z</time>
      </trkpt>
      <trkpt lat="44.84084" lon="5.38745">
        <ele>1387.32</ele>
        <time>2021-12-19T10:57:45Z</time>
      </trkpt>
      <trkpt lat="44.84066" lon="5.38749">
        <ele>1383.96</ele>
        <time>2021-12-19T10:58:00Z</time>
      </trkpt>
      <trkpt lat="44.84065" lon="5.38752">
        <ele>1383.47</ele>
        <time>2021-12-19T10:58:12Z</time>
      </trkpt>
      <trkpt lat="44.84062" lon="5.38754">
        <ele>1382.99</ele>
        <time>2021-12-19T10:58:16Z</time>
      </trkpt>
      <trkpt lat="44.84042" lon="5.38759">
        <ele>1381.07</ele>
        <time>2021-12-19T10:58:30Z</time>
      </trkpt>
      <trkpt lat="44.84039" lon="5.38757">
        <ele>1379.63</ele>
        <time>2021-12-19T10:58:43Z</time>
      </trkpt>
      <trkpt lat="44.84034" lon="5.38756">
        <ele>1379.15</ele>
        <time>2021-12-19T10:58:47Z</time>
      </trkpt>
      <trkpt lat="44.84027" lon="5.38754">
        <ele>1378.67</ele>
        <time>2021-12-19T10:58:54Z</time>
      </trkpt>
      <trkpt lat="44.84021" lon="5.38756">
        <ele>1377.71</ele>
        <time>2021-12-19T10:59:07Z</time>
      </trkpt>
      <trkpt lat="44.84014" lon="5.38754">
        <ele>1376.75</ele>
        <time>2021-12-19T10:59:14Z</time>
      </trkpt>
      <trkpt lat="44.83999" lon="5.38752">
        <ele>1375.3</ele>
        <time>2021-12-19T10:59:29Z</time>
      </trkpt>
      <trkpt lat="44.83988" lon="5.38751">
        <ele>1374.34</ele>
        <time>2021-12-19T10:59:43Z</time>
      </trkpt>
      <trkpt lat="44.83987" lon="5.3875">
        <ele>1373.86</ele>
        <time>2021-12-19T10:59:47Z</time>
      </trkpt>
      <trkpt lat="44.83984" lon="5.38749">
        <ele>1373.86</ele>
        <time>2021-12-19T10:59:49Z</time>
      </trkpt>
      <trkpt lat="44.83968" lon="5.38748">
        <ele>1370.98</ele>
        <time>2021-12-19T11:00:04Z</time>
      </trkpt>
      <trkpt lat="44.8395" lon="5.3875">
        <ele>1370.5</ele>
        <time>2021-12-19T11:00:18Z</time>
      </trkpt>
      <trkpt lat="44.83941" lon="5.3875">
        <ele>1370.02</ele>
        <time>2021-12-19T11:00:30Z</time>
      </trkpt>
      <trkpt lat="44.83939" lon="5.38749">
        <ele>1369.54</ele>
        <time>2021-12-19T11:00:33Z</time>
      </trkpt>
      <trkpt lat="44.8393" lon="5.38751">
        <ele>1369.05</ele>
        <time>2021-12-19T11:00:40Z</time>
      </trkpt>
      <trkpt lat="44.83925" lon="5.3875">
        <ele>1369.05</ele>
        <time>2021-12-19T11:00:44Z</time>
      </trkpt>
      <trkpt lat="44.83905" lon="5.38747">
        <ele>1367.61</ele>
        <time>2021-12-19T11:00:59Z</time>
      </trkpt>
      <trkpt lat="44.83894" lon="5.38744">
        <ele>1366.65</ele>
        <time>2021-12-19T11:01:08Z</time>
      </trkpt>
      <trkpt lat="44.83872" lon="5.38742">
        <ele>1365.69</ele>
        <time>2021-12-19T11:01:24Z</time>
      </trkpt>
      <trkpt lat="44.83856" lon="5.38743">
        <ele>1364.73</ele>
        <time>2021-12-19T11:01:37Z</time>
      </trkpt>
      <trkpt lat="44.8385" lon="5.38745">
        <ele>1364.25</ele>
        <time>2021-12-19T11:01:42Z</time>
      </trkpt>
      <trkpt lat="44.83825" lon="5.3874">
        <ele>1362.81</ele>
        <time>2021-12-19T11:02:00Z</time>
      </trkpt>
      <trkpt lat="44.83819" lon="5.3874">
        <ele>1361.84</ele>
        <time>2021-12-19T11:02:05Z</time>
      </trkpt>
      <trkpt lat="44.83805" lon="5.38741">
        <ele>1360.4</ele>
        <time>2021-12-19T11:02:16Z</time>
      </trkpt>
      <trkpt lat="44.83791" lon="5.38745">
        <ele>1358.96</ele>
        <time>2021-12-19T11:02:29Z</time>
      </trkpt>
      <trkpt lat="44.8379" lon="5.38745">
        <ele>1358.96</ele>
        <time>2021-12-19T11:02:32Z</time>
      </trkpt>
      <trkpt lat="44.83773" lon="5.38744">
        <ele>1358.48</ele>
        <time>2021-12-19T11:02:45Z</time>
      </trkpt>
      <trkpt lat="44.83767" lon="5.38744">
        <ele>1358</ele>
        <time>2021-12-19T11:02:50Z</time>
      </trkpt>
      <trkpt lat="44.83749" lon="5.38744">
        <ele>1357.52</ele>
        <time>2021-12-19T11:03:05Z</time>
      </trkpt>
      <trkpt lat="44.83737" lon="5.38744">
        <ele>1357.04</ele>
        <time>2021-12-19T11:03:14Z</time>
      </trkpt>
      <trkpt lat="44.83732" lon="5.38743">
        <ele>1357.52</ele>
        <time>2021-12-19T11:03:17Z</time>
      </trkpt>
      <trkpt lat="44.83726" lon="5.38743">
        <ele>1357.04</ele>
        <time>2021-12-19T11:03:21Z</time>
      </trkpt>
      <trkpt lat="44.83711" lon="5.38744">
        <ele>1356.56</ele>
        <time>2021-12-19T11:03:34Z</time>
      </trkpt>
      <trkpt lat="44.83703" lon="5.38746">
        <ele>1356.08</ele>
        <time>2021-12-19T11:03:44Z</time>
      </trkpt>
      <trkpt lat="44.83693" lon="5.38746">
        <ele>1356.56</ele>
        <time>2021-12-19T11:03:50Z</time>
      </trkpt>
      <trkpt lat="44.83684" lon="5.38746">
        <ele>1355.6</ele>
        <time>2021-12-19T11:03:57Z</time>
      </trkpt>
      <trkpt lat="44.83666" lon="5.38746">
        <ele>1355.6</ele>
        <time>2021-12-19T11:04:10Z</time>
      </trkpt>
      <trkpt lat="44.83659" lon="5.38746">
        <ele>1355.12</ele>
        <time>2021-12-19T11:04:18Z</time>
      </trkpt>
      <trkpt lat="44.8365" lon="5.38744">
        <ele>1354.15</ele>
        <time>2021-12-19T11:04:25Z</time>
      </trkpt>
      <trkpt lat="44.83645" lon="5.38744">
        <ele>1355.12</ele>
        <time>2021-12-19T11:04:30Z</time>
      </trkpt>
      <trkpt lat="44.83631" lon="5.38745">
        <ele>1354.15</ele>
        <time>2021-12-19T11:04:43Z</time>
      </trkpt>
      <trkpt lat="44.83628" lon="5.38746">
        <ele>1354.15</ele>
        <time>2021-12-19T11:04:46Z</time>
      </trkpt>
      <trkpt lat="44.8362" lon="5.38748">
        <ele>1354.15</ele>
        <time>2021-12-19T11:04:53Z</time>
      </trkpt>
      <trkpt lat="44.83613" lon="5.38746">
        <ele>1353.67</ele>
        <time>2021-12-19T11:04:59Z</time>
      </trkpt>
      <trkpt lat="44.836" lon="5.38749">
        <ele>1352.71</ele>
        <time>2021-12-19T11:05:12Z</time>
      </trkpt>
      <trkpt lat="44.83593" lon="5.38748">
        <ele>1352.23</ele>
        <time>2021-12-19T11:05:31Z</time>
      </trkpt>
      <trkpt lat="44.83575" lon="5.38742">
        <ele>1351.27</ele>
        <time>2021-12-19T11:05:46Z</time>
      </trkpt>
      <trkpt lat="44.83553" lon="5.38742">
        <ele>1349.83</ele>
        <time>2021-12-19T11:06:03Z</time>
      </trkpt>
      <trkpt lat="44.83543" lon="5.38743">
        <ele>1349.35</ele>
        <time>2021-12-19T11:06:09Z</time>
      </trkpt>
      <trkpt lat="44.83537" lon="5.38746">
        <ele>1348.39</ele>
        <time>2021-12-19T11:06:14Z</time>
      </trkpt>
      <trkpt lat="44.83525" lon="5.38751">
        <ele>1346.94</ele>
        <time>2021-12-19T11:06:23Z</time>
      </trkpt>
      <trkpt lat="44.83519" lon="5.38753">
        <ele>1346.46</ele>
        <time>2021-12-19T11:06:28Z</time>
      </trkpt>
      <trkpt lat="44.83502" lon="5.38758">
        <ele>1345.02</ele>
        <time>2021-12-19T11:06:42Z</time>
      </trkpt>
      <trkpt lat="44.83485" lon="5.38763">
        <ele>1344.54</ele>
        <time>2021-12-19T11:06:56Z</time>
      </trkpt>
      <trkpt lat="44.83482" lon="5.38766">
        <ele>1344.54</ele>
        <time>2021-12-19T11:06:58Z</time>
      </trkpt>
      <trkpt lat="44.83479" lon="5.38773">
        <ele>1344.54</ele>
        <time>2021-12-19T11:07:02Z</time>
      </trkpt>
      <trkpt lat="44.8348" lon="5.38776">
        <ele>1344.54</ele>
        <time>2021-12-19T11:07:04Z</time>
      </trkpt>
      <trkpt lat="44.83483" lon="5.38783">
        <ele>1344.54</ele>
        <time>2021-12-19T11:07:08Z</time>
      </trkpt>
      <trkpt lat="44.83495" lon="5.38795">
        <ele>1343.1</ele>
        <time>2021-12-19T11:07:23Z</time>
      </trkpt>
      <trkpt lat="44.83497" lon="5.38798">
        <ele>1343.1</ele>
        <time>2021-12-19T11:07:26Z</time>
      </trkpt>
      <trkpt lat="44.83503" lon="5.388">
        <ele>1342.14</ele>
        <time>2021-12-19T11:07:32Z</time>
      </trkpt>
      <trkpt lat="44.83522" lon="5.3881">
        <ele>1340.7</ele>
        <time>2021-12-19T11:07:48Z</time>
      </trkpt>
      <trkpt lat="44.83539" lon="5.38823">
        <ele>1339.73</ele>
        <time>2021-12-19T11:08:03Z</time>
      </trkpt>
      <trkpt lat="44.8354" lon="5.38823">
        <ele>1339.25</ele>
        <time>2021-12-19T11:08:04Z</time>
      </trkpt>
      <trkpt lat="44.83548" lon="5.38829">
        <ele>1338.29</ele>
        <time>2021-12-19T11:08:11Z</time>
      </trkpt>
      <trkpt lat="44.8355" lon="5.38831">
        <ele>1338.29</ele>
        <time>2021-12-19T11:08:14Z</time>
      </trkpt>
      <trkpt lat="44.83555" lon="5.38833">
        <ele>1337.81</ele>
        <time>2021-12-19T11:08:17Z</time>
      </trkpt>
      <trkpt lat="44.8357" lon="5.3884">
        <ele>1335.41</ele>
        <time>2021-12-19T11:08:31Z</time>
      </trkpt>
      <trkpt lat="44.83576" lon="5.38845">
        <ele>1334.45</ele>
        <time>2021-12-19T11:08:39Z</time>
      </trkpt>
      <trkpt lat="44.83593" lon="5.38853">
        <ele>1333.01</ele>
        <time>2021-12-19T11:08:53Z</time>
      </trkpt>
      <trkpt lat="44.83601" lon="5.38856">
        <ele>1332.04</ele>
        <time>2021-12-19T11:09:00Z</time>
      </trkpt>
      <trkpt lat="44.8361" lon="5.38865">
        <ele>1331.08</ele>
        <time>2021-12-19T11:09:10Z</time>
      </trkpt>
      <trkpt lat="44.8362" lon="5.38871">
        <ele>1329.16</ele>
        <time>2021-12-19T11:09:28Z</time>
      </trkpt>
      <trkpt lat="44.83632" lon="5.3888">
        <ele>1328.2</ele>
        <time>2021-12-19T11:09:48Z</time>
      </trkpt>
      <trkpt lat="44.83651" lon="5.38896">
        <ele>1325.8</ele>
        <time>2021-12-19T11:10:06Z</time>
      </trkpt>
      <trkpt lat="44.83669" lon="5.3891">
        <ele>1323.87</ele>
        <time>2021-12-19T11:10:23Z</time>
      </trkpt>
      <trkpt lat="44.83669" lon="5.38928">
        <ele>1320.99</ele>
        <time>2021-12-19T11:10:35Z</time>
      </trkpt>
      <trkpt lat="44.83661" lon="5.38943">
        <ele>1318.1</ele>
        <time>2021-12-19T11:10:50Z</time>
      </trkpt>
      <trkpt lat="44.83654" lon="5.38959">
        <ele>1315.22</ele>
        <time>2021-12-19T11:11:05Z</time>
      </trkpt>
      <trkpt lat="44.8364" lon="5.38976">
        <ele>1313.78</ele>
        <time>2021-12-19T11:11:15Z</time>
      </trkpt>
      <trkpt lat="44.83641" lon="5.38999">
        <ele>1311.86</ele>
        <time>2021-12-19T11:11:31Z</time>
      </trkpt>
      <trkpt lat="44.83644" lon="5.39012">
        <ele>1310.41</ele>
        <time>2021-12-19T11:11:39Z</time>
      </trkpt>
      <trkpt lat="44.83654" lon="5.39031">
        <ele>1308.97</ele>
        <time>2021-12-19T11:11:54Z</time>
      </trkpt>
      <trkpt lat="44.83669" lon="5.39046">
        <ele>1306.09</ele>
        <time>2021-12-19T11:12:09Z</time>
      </trkpt>
      <trkpt lat="44.8367" lon="5.39049">
        <ele>1305.61</ele>
        <time>2021-12-19T11:12:11Z</time>
      </trkpt>
      <trkpt lat="44.83676" lon="5.39065">
        <ele>1303.69</ele>
        <time>2021-12-19T11:12:24Z</time>
      </trkpt>
      <trkpt lat="44.83678" lon="5.39067">
        <ele>1302.72</ele>
        <time>2021-12-19T11:12:27Z</time>
      </trkpt>
      <trkpt lat="44.83681" lon="5.39067">
        <ele>1302.72</ele>
        <time>2021-12-19T11:12:30Z</time>
      </trkpt>
      <trkpt lat="44.83695" lon="5.39069">
        <ele>1299.84</ele>
        <time>2021-12-19T11:12:44Z</time>
      </trkpt>
      <trkpt lat="44.8371" lon="5.3908">
        <ele>1297.44</ele>
        <time>2021-12-19T11:12:59Z</time>
      </trkpt>
      <trkpt lat="44.83713" lon="5.39079">
        <ele>1297.44</ele>
        <time>2021-12-19T11:13:02Z</time>
      </trkpt>
      <trkpt lat="44.83727" lon="5.39079">
        <ele>1296.48</ele>
        <time>2021-12-19T11:13:15Z</time>
      </trkpt>
      <trkpt lat="44.83746" lon="5.39073">
        <ele>1293.59</ele>
        <time>2021-12-19T11:13:31Z</time>
      </trkpt>
      <trkpt lat="44.83746" lon="5.39074">
        <ele>1293.59</ele>
        <time>2021-12-19T11:13:32Z</time>
      </trkpt>
      <trkpt lat="44.83751" lon="5.39078">
        <ele>1292.15</ele>
        <time>2021-12-19T11:13:38Z</time>
      </trkpt>
      <trkpt lat="44.83753" lon="5.3908">
        <ele>1292.15</ele>
        <time>2021-12-19T11:13:40Z</time>
      </trkpt>
      <trkpt lat="44.83769" lon="5.39086">
        <ele>1289.27</ele>
        <time>2021-12-19T11:13:56Z</time>
      </trkpt>
      <trkpt lat="44.83774" lon="5.39087">
        <ele>1288.78</ele>
        <time>2021-12-19T11:14:00Z</time>
      </trkpt>
      <trkpt lat="44.83775" lon="5.39089">
        <ele>1288.78</ele>
        <time>2021-12-19T11:14:01Z</time>
      </trkpt>
      <trkpt lat="44.83777" lon="5.3909">
        <ele>1288.3</ele>
        <time>2021-12-19T11:14:02Z</time>
      </trkpt>
      <trkpt lat="44.83786" lon="5.39106">
        <ele>1287.82</ele>
        <time>2021-12-19T11:14:13Z</time>
      </trkpt>
      <trkpt lat="44.83799" lon="5.39119">
        <ele>1286.86</ele>
        <time>2021-12-19T11:14:26Z</time>
      </trkpt>
      <trkpt lat="44.83814" lon="5.39122">
        <ele>1286.38</ele>
        <time>2021-12-19T11:14:40Z</time>
      </trkpt>
      <trkpt lat="44.83822" lon="5.3913">
        <ele>1284.94</ele>
        <time>2021-12-19T11:14:48Z</time>
      </trkpt>
      <trkpt lat="44.83827" lon="5.39136">
        <ele>1284.94</ele>
        <time>2021-12-19T11:14:54Z</time>
      </trkpt>
      <trkpt lat="44.8383" lon="5.39137">
        <ele>1284.46</ele>
        <time>2021-12-19T11:14:56Z</time>
      </trkpt>
      <trkpt lat="44.83839" lon="5.39143">
        <ele>1282.54</ele>
        <time>2021-12-19T11:15:07Z</time>
      </trkpt>
      <trkpt lat="44.83846" lon="5.39143">
        <ele>1282.06</ele>
        <time>2021-12-19T11:15:19Z</time>
      </trkpt>
      <trkpt lat="44.83847" lon="5.39143">
        <ele>1282.06</ele>
        <time>2021-12-19T11:15:44Z</time>
      </trkpt>
      <trkpt lat="44.83849" lon="5.39144">
        <ele>1281.57</ele>
        <time>2021-12-19T11:15:46Z</time>
      </trkpt>
      <trkpt lat="44.83863" lon="5.39155">
        <ele>1280.61</ele>
        <time>2021-12-19T11:16:01Z</time>
      </trkpt>
      <trkpt lat="44.83867" lon="5.3916">
        <ele>1280.13</ele>
        <time>2021-12-19T11:16:07Z</time>
      </trkpt>
      <trkpt lat="44.83873" lon="5.39165">
        <ele>1278.69</ele>
        <time>2021-12-19T11:16:14Z</time>
      </trkpt>
      <trkpt lat="44.83882" lon="5.39175">
        <ele>1277.25</ele>
        <time>2021-12-19T11:16:26Z</time>
      </trkpt>
      <trkpt lat="44.83883" lon="5.39179">
        <ele>1277.25</ele>
        <time>2021-12-19T11:16:35Z</time>
      </trkpt>
      <trkpt lat="44.83885" lon="5.39182">
        <ele>1276.77</ele>
        <time>2021-12-19T11:16:37Z</time>
      </trkpt>
      <trkpt lat="44.83892" lon="5.39187">
        <ele>1275.81</ele>
        <time>2021-12-19T11:16:45Z</time>
      </trkpt>
      <trkpt lat="44.83895" lon="5.39194">
        <ele>1275.81</ele>
        <time>2021-12-19T11:16:50Z</time>
      </trkpt>
      <trkpt lat="44.83898" lon="5.392">
        <ele>1275.33</ele>
        <time>2021-12-19T11:16:54Z</time>
      </trkpt>
      <trkpt lat="44.83902" lon="5.39208">
        <ele>1274.36</ele>
        <time>2021-12-19T11:16:59Z</time>
      </trkpt>
      <trkpt lat="44.83911" lon="5.39225">
        <ele>1273.4</ele>
        <time>2021-12-19T11:17:14Z</time>
      </trkpt>
      <trkpt lat="44.83917" lon="5.39229">
        <ele>1272.92</ele>
        <time>2021-12-19T11:17:25Z</time>
      </trkpt>
      <trkpt lat="44.83922" lon="5.39234">
        <ele>1271.96</ele>
        <time>2021-12-19T11:17:31Z</time>
      </trkpt>
      <trkpt lat="44.83927" lon="5.39241">
        <ele>1271.48</ele>
        <time>2021-12-19T11:17:39Z</time>
      </trkpt>
      <trkpt lat="44.8393" lon="5.39251">
        <ele>1271</ele>
        <time>2021-12-19T11:17:44Z</time>
      </trkpt>
      <trkpt lat="44.83936" lon="5.39269">
        <ele>1269.56</ele>
        <time>2021-12-19T11:17:55Z</time>
      </trkpt>
      <trkpt lat="44.8394" lon="5.39273">
        <ele>1269.56</ele>
        <time>2021-12-19T11:17:59Z</time>
      </trkpt>
      <trkpt lat="44.83941" lon="5.39279">
        <ele>1268.6</ele>
        <time>2021-12-19T11:18:04Z</time>
      </trkpt>
      <trkpt lat="44.83946" lon="5.39289">
        <ele>1268.12</ele>
        <time>2021-12-19T11:18:12Z</time>
      </trkpt>
      <trkpt lat="44.83954" lon="5.39307">
        <ele>1267.16</ele>
        <time>2021-12-19T11:18:24Z</time>
      </trkpt>
      <trkpt lat="44.83955" lon="5.3931">
        <ele>1267.64</ele>
        <time>2021-12-19T11:18:26Z</time>
      </trkpt>
      <trkpt lat="44.83965" lon="5.39325">
        <ele>1266.67</ele>
        <time>2021-12-19T11:18:37Z</time>
      </trkpt>
      <trkpt lat="44.83978" lon="5.39345">
        <ele>1265.71</ele>
        <time>2021-12-19T11:18:51Z</time>
      </trkpt>
      <trkpt lat="44.83979" lon="5.39347">
        <ele>1265.71</ele>
        <time>2021-12-19T11:18:53Z</time>
      </trkpt>
      <trkpt lat="44.8398" lon="5.39365">
        <ele>1263.79</ele>
        <time>2021-12-19T11:19:05Z</time>
      </trkpt>
      <trkpt lat="44.83977" lon="5.3938">
        <ele>1263.31</ele>
        <time>2021-12-19T11:19:15Z</time>
      </trkpt>
      <trkpt lat="44.83968" lon="5.39398">
        <ele>1261.87</ele>
        <time>2021-12-19T11:19:28Z</time>
      </trkpt>
      <trkpt lat="44.83957" lon="5.39417">
        <ele>1259.94</ele>
        <time>2021-12-19T11:19:42Z</time>
      </trkpt>
      <trkpt lat="44.83953" lon="5.39427">
        <ele>1259.46</ele>
        <time>2021-12-19T11:19:50Z</time>
      </trkpt>
      <trkpt lat="44.83945" lon="5.39443">
        <ele>1258.02</ele>
        <time>2021-12-19T11:20:02Z</time>
      </trkpt>
      <trkpt lat="44.83936" lon="5.3946">
        <ele>1257.06</ele>
        <time>2021-12-19T11:20:14Z</time>
      </trkpt>
      <trkpt lat="44.83934" lon="5.39467">
        <ele>1256.1</ele>
        <time>2021-12-19T11:20:22Z</time>
      </trkpt>
      <trkpt lat="44.83923" lon="5.39482">
        <ele>1255.14</ele>
        <time>2021-12-19T11:20:36Z</time>
      </trkpt>
      <trkpt lat="44.83911" lon="5.39493">
        <ele>1253.7</ele>
        <time>2021-12-19T11:20:49Z</time>
      </trkpt>
      <trkpt lat="44.83901" lon="5.395">
        <ele>1252.74</ele>
        <time>2021-12-19T11:20:57Z</time>
      </trkpt>
      <trkpt lat="44.83891" lon="5.39508">
        <ele>1251.77</ele>
        <time>2021-12-19T11:21:07Z</time>
      </trkpt>
      <trkpt lat="44.83886" lon="5.39514">
        <ele>1251.29</ele>
        <time>2021-12-19T11:21:11Z</time>
      </trkpt>
      <trkpt lat="44.83881" lon="5.39526">
        <ele>1250.33</ele>
        <time>2021-12-19T11:21:21Z</time>
      </trkpt>
      <trkpt lat="44.83878" lon="5.39529">
        <ele>1249.85</ele>
        <time>2021-12-19T11:21:24Z</time>
      </trkpt>
      <trkpt lat="44.83872" lon="5.39539">
        <ele>1249.37</ele>
        <time>2021-12-19T11:21:30Z</time>
      </trkpt>
      <trkpt lat="44.83863" lon="5.39556">
        <ele>1248.89</ele>
        <time>2021-12-19T11:21:40Z</time>
      </trkpt>
      <trkpt lat="44.83858" lon="5.39567">
        <ele>1247.93</ele>
        <time>2021-12-19T11:21:53Z</time>
      </trkpt>
      <trkpt lat="44.83853" lon="5.39577">
        <ele>1247.45</ele>
        <time>2021-12-19T11:22:05Z</time>
      </trkpt>
      <trkpt lat="44.83849" lon="5.39583">
        <ele>1247.45</ele>
        <time>2021-12-19T11:22:22Z</time>
      </trkpt>
      <trkpt lat="44.83836" lon="5.39602">
        <ele>1246.01</ele>
        <time>2021-12-19T11:22:35Z</time>
      </trkpt>
      <trkpt lat="44.83835" lon="5.39606">
        <ele>1246.01</ele>
        <time>2021-12-19T11:22:39Z</time>
      </trkpt>
      <trkpt lat="44.83827" lon="5.39617">
        <ele>1244.08</ele>
        <time>2021-12-19T11:22:51Z</time>
      </trkpt>
      <trkpt lat="44.83826" lon="5.39617">
        <ele>1244.08</ele>
        <time>2021-12-19T11:23:15Z</time>
      </trkpt>
      <trkpt lat="44.83823" lon="5.39626">
        <ele>1244.08</ele>
        <time>2021-12-19T11:23:28Z</time>
      </trkpt>
      <trkpt lat="44.83824" lon="5.39628">
        <ele>1244.08</ele>
        <time>2021-12-19T11:23:44Z</time>
      </trkpt>
    </trkseg>
  </trk>
</gpx>